Data Archive--July, 2004

Date Time Heat Index Current Temp Wind Chill High Temp Low Temp Humidity Dew Point Wind Speed Gust Wind Direction Rain Barometer
07/01/2004 12:00 a 67.0 67.0 67.0 67.3 66.9 74 58.4 0.0 0.0 --- 0.00 30.000
07/01/2004 12:30 a 66.7 66.7 66.7 67.0 66.1 78 59.6 0.0 0.0 --- 0.00 30.000
07/01/2004 1:00 a 65.5 65.5 65.5 66.1 64.9 81 59.5 0.0 0.0 --- 0.00 29.995
07/01/2004 1:30 a 64.7 64.7 64.7 64.9 64.4 82 59.1 0.0 0.0 --- 0.00 29.993
07/01/2004 2:00 a 64.0 64.0 64.0 64.4 63.6 86 59.7 0.0 0.0 --- 0.00 29.999
07/01/2004 2:30 a 63.2 63.2 63.2 63.6 62.9 87 59.3 0.0 0.0 --- 0.00 30.002
07/01/2004 3:00 a 62.5 62.5 62.5 62.9 62.1 90 59.5 0.0 0.0 --- 0.00 29.999
07/01/2004 3:30 a 61.8 61.8 61.8 62.1 61.5 92 59.5 0.0 0.0 --- 0.00 30.004
07/01/2004 4:00 a 61.3 61.3 61.3 61.5 61.1 93 59.3 0.0 0.0 --- 0.00 30.001
07/01/2004 4:30 a 60.9 60.9 60.9 61.1 60.8 94 59.2 0.0 0.0 --- 0.00 30.002
07/01/2004 5:00 a 60.7 60.7 60.7 60.9 60.5 96 59.6 0.0 0.0 --- 0.00 30.003
07/01/2004 5:30 a 60.4 60.4 60.4 60.6 60.0 96 59.3 0.0 0.0 --- 0.00 30.006
07/01/2004 6:00 a 60.0 60.0 60.0 60.1 59.9 98 59.4 0.0 0.0 --- 0.00 30.006
07/01/2004 6:30 a 60.2 60.2 60.2 60.4 60.1 98 59.6 0.0 0.0 --- 0.00 30.005
07/01/2004 7:00 a 61.2 61.2 61.2 62.0 60.4 97 60.3 0.0 0.0 --- 0.00 30.004
07/01/2004 7:30 a 63.9 63.9 63.9 66.7 62.0 87 60.0 0.0 0.0 --- 0.00 30.005
07/01/2004 8:00 a 71.0 68.5 68.5 69.9 66.7 82 62.8 0.0 0.0 --- 0.00 30.001
07/01/2004 8:30 a 72.0 69.7 69.7 70.1 69.2 83 64.3 0.0 0.0 --- 0.00 30.000
07/01/2004 9:00 a 73.0 71.0 71.0 72.3 70.1 81 64.9 0.0 0.0 --- 0.00 30.000
07/01/2004 9:30 a 76.0 73.6 73.6 74.7 72.3 80 67.1 0.0 0.0 --- 0.00 30.003
07/01/2004 10:00 a 78.5 75.8 75.8 76.3 74.7 75 67.3 0.0 2.0 S 0.00 29.999
07/01/2004 10:30 a 79.0 77.2 77.2 78.0 76.3 70 66.7 0.0 1.0 S 0.00 29.998
07/01/2004 11:00 a 81.0 78.6 78.6 79.3 77.8 67 66.7 0.0 2.0 S 0.00 29.995
07/01/2004 11:30 a 82.2 80.0 80.0 80.6 79.2 62 65.8 0.0 2.0 SSW 0.00 29.994
07/01/2004 12:00 p 85.0 83.2 83.2 85.7 80.4 50 62.6 0.0 2.0 SSW 0.00 29.993
07/01/2004 12:30 p 87.8 88.1 88.1 91.0 84.8 39 60.1 0.0 3.0 SSW 0.00 29.985
07/01/2004 1:00 p 95.2 94.3 94.3 95.5 91.0 33 60.8 0.0 3.0 N 0.00 29.971
07/01/2004 1:30 p 93.4 91.7 91.7 94.5 87.6 37 61.8 0.0 5.0 N 0.00 29.965
07/01/2004 2:00 p 93.0 91.6 91.6 93.8 88.4 35 60.1 0.0 2.0 N 0.00 29.951
07/01/2004 2:30 p 97.6 91.5 91.5 93.8 85.6 49 69.7 0.0 3.0 N 0.00 29.947
07/01/2004 3:00 p 84.6 85.4 85.4 90.7 83.2 38 56.9 0.0 3.0 N 0.00 29.932
07/01/2004 3:30 p 87.6 86.5 86.5 90.7 84.2 42 60.7 0.0 2.0 S 0.00 29.920
07/01/2004 4:00 p 88.8 86.5 86.5 88.8 84.7 46 63.3 0.0 0.0 --- 0.00 29.911
07/01/2004 4:30 p 86.6 87.3 87.3 88.1 86.3 38 58.6 0.0 2.0 S 0.00 29.905
07/01/2004 5:00 p 87.6 85.1 85.1 87.8 80.9 53 66.1 1.0 5.0 NNE 0.00 29.908
07/01/2004 5:30 p 81.4 79.7 79.7 80.9 79.1 57 63.1 1.0 3.0 N 0.00 29.901
07/01/2004 6:00 p 82.3 80.3 80.3 80.6 80.0 63 66.6 0.0 4.0 NNW 0.00 29.891
07/01/2004 6:30 p 82.7 80.0 80.0 80.3 79.6 67 68.1 0.0 3.0 N 0.00 29.890
07/01/2004 7:00 p 81.0 79.2 79.2 79.6 78.7 67 67.3 0.0 3.0 N 0.00 29.895
07/01/2004 7:30 p 79.8 78.1 78.1 78.7 77.5 68 66.7 0.0 3.0 N 0.00 29.890
07/01/2004 8:00 p 79.2 77.0 77.0 77.5 76.5 71 66.9 0.0 3.0 N 0.00 29.902
07/01/2004 8:30 p 78.4 76.1 76.1 76.5 75.6 74 67.2 0.0 2.0 N 0.00 29.907
07/01/2004 9:00 p 76.0 74.2 74.2 75.6 73.0 82 68.4 0.0 2.0 N 0.00 29.915
07/01/2004 9:30 p 74.0 72.3 72.3 73.0 71.7 87 68.2 0.0 0.0 --- 0.00 29.902
07/01/2004 10:00 p 73.0 71.4 71.4 71.7 71.2 87 67.3 0.0 0.0 --- 0.00 29.915
07/01/2004 10:30 p 73.2 70.9 70.9 71.4 70.2 91 68.1 0.0 0.0 --- 0.00 29.911
07/01/2004 11:00 p 72.6 69.8 69.8 70.2 69.4 93 67.7 0.0 0.0 --- 0.00 29.911
07/01/2004 11:30 p 71.5 69.1 69.1 69.4 68.7 95 67.6 0.0 0.0 --- 0.00 29.908
07/02/2004 12:00 a 71.8 68.7 68.7 68.9 68.5 98 68.1 0.0 0.0 --- 0.00 29.905
07/02/2004 12:30 a 72.0 69.0 69.0 69.0 68.9 100 69.0 0.0 0.0 --- 0.00 29.897
07/02/2004 1:00 a 72.0 68.8 68.8 68.9 68.7 100 68.8 0.0 0.0 --- 0.00 29.900
07/02/2004 1:30 a 72.0 68.6 68.6 68.8 68.3 100 68.6 0.0 0.0 --- 0.00 29.901
07/02/2004 2:00 a 70.0 68.1 68.1 68.3 67.8 100 68.1 0.0 0.0 --- 0.00 29.899
07/02/2004 2:30 a 67.4 67.4 67.4 67.8 67.1 100 67.4 0.0 0.0 --- 0.00 29.896
07/02/2004 3:00 a 67.0 67.0 67.0 67.2 66.9 100 67.0 0.0 0.0 --- 0.00 29.890
07/02/2004 3:30 a 66.6 66.6 66.6 66.9 66.4 100 66.6 0.0 0.0 --- 0.00 29.875
07/02/2004 4:00 a 66.2 66.2 66.2 66.4 66.2 100 66.2 0.0 0.0 --- 0.00 29.872
07/02/2004 4:30 a 66.2 66.2 66.2 66.3 66.1 100 66.2 0.0 0.0 --- 0.00 29.869
07/02/2004 5:00 a 65.9 65.9 65.9 66.1 65.7 100 65.9 0.0 0.0 --- 0.00 29.869
07/02/2004 5:30 a 65.5 65.5 65.5 65.7 65.5 100 65.5 0.0 0.0 --- 0.00 29.869
07/02/2004 6:00 a 65.6 65.6 65.6 65.8 65.4 100 65.6 0.0 0.0 --- 0.00 29.873
07/02/2004 6:30 a 66.2 66.2 66.2 66.7 65.8 100 66.2 0.0 0.0 --- 0.00 29.875
07/02/2004 7:00 a 67.1 67.1 67.1 67.5 66.7 100 67.1 0.0 0.0 --- 0.00 29.873
07/02/2004 7:30 a 71.5 68.5 68.5 69.9 67.5 95 67.0 0.0 0.0 --- 0.00 29.876
07/02/2004 8:00 a 72.6 69.5 69.5 70.0 69.0 93 67.4 0.0 0.0 --- 0.00 29.874
07/02/2004 8:30 a 73.0 70.9 70.9 72.0 70.0 87 66.8 0.0 0.0 --- 0.00 29.875
07/02/2004 9:00 a 75.0 73.2 73.2 74.5 72.0 80 66.7 0.0 0.0 --- 0.00 29.873
07/02/2004 9:30 a 78.5 76.0 76.0 77.1 74.5 75 67.5 0.0 0.0 --- 0.00 29.865
07/02/2004 10:00 a 81.0 78.6 78.6 79.6 77.1 68 67.2 0.0 1.0 --- 0.00 29.861
07/02/2004 10:30 a 82.1 80.3 80.3 81.2 79.6 61 65.6 0.0 1.0 N 0.00 29.857
07/02/2004 11:00 a 83.9 81.9 81.9 82.5 81.2 59 66.2 0.0 0.0 --- 0.00 29.857
07/02/2004 11:30 a 85.0 83.0 83.0 83.7 82.5 53 64.1 0.0 2.0 N 0.00 29.849
07/02/2004 12:00 p 85.6 86.0 86.0 89.7 83.7 38 57.5 0.0 1.0 N 0.00 29.842
07/02/2004 12:30 p 93.0 92.6 92.6 97.5 89.0 30 56.7 0.0 2.0 SE 0.00 29.838
07/02/2004 1:00 p 99.6 97.8 97.8 99.1 95.5 29 60.2 0.0 4.0 SSE 0.00 29.832
07/02/2004 1:30 p 99.0 99.3 99.3 101.3 95.7 25 57.3 0.0 1.0 --- 0.00 29.825
07/02/2004 2:00 p 101.5 99.5 99.5 101.2 98.8 27 59.6 0.0 3.0 SSE 0.00 29.823
07/02/2004 2:30 p 98.8 98.2 98.2 99.3 97.2 27 58.5 0.0 4.0 SSE 0.00 29.808
07/02/2004 3:00 p 97.4 97.0 97.0 99.1 94.7 26 56.5 0.0 3.0 SE 0.00 29.792
07/02/2004 3:30 p 96.6 96.1 96.1 98.8 93.6 29 58.7 0.0 2.0 SSE 0.00 29.794
07/02/2004 4:00 p 90.4 88.7 88.7 93.6 85.0 41 62.0 0.0 2.0 ESE 0.00 29.781
07/02/2004 4:30 p 87.3 86.6 86.6 88.4 84.9 41 60.1 0.0 2.0 ESE 0.00 29.775
07/02/2004 5:00 p 87.8 87.9 87.9 88.4 87.3 39 59.9 0.0 2.0 ESE 0.00 29.773
07/02/2004 5:30 p 88.0 87.7 87.7 88.3 87.0 40 60.4 0.0 2.0 ESE 0.00 29.769
07/02/2004 6:00 p 87.2 85.8 85.8 87.1 84.3 46 62.6 0.0 3.0 SE 0.00 29.765
07/02/2004 6:30 p 85.4 83.9 83.9 84.3 83.3 47 61.5 0.0 2.0 SSE 0.00 29.765
07/02/2004 7:00 p 84.6 83.4 83.4 83.7 83.2 48 61.7 0.0 1.0 SSE 0.00 29.767
07/02/2004 7:30 p 85.0 83.3 83.3 83.7 82.4 52 63.9 0.0 1.0 --- 0.00 29.769
07/02/2004 8:00 p 83.3 81.7 81.7 82.4 80.8 53 62.9 0.0 1.0 SSE 0.00 29.781
07/02/2004 8:30 p 82.2 79.7 79.7 80.8 78.0 62 65.5 0.0 0.0 --- 0.00 29.784
07/02/2004 9:00 p 78.0 76.6 76.6 78.0 75.6 65 64.0 0.0 0.0 --- 0.00 29.796
07/02/2004 9:30 p 76.6 74.8 74.8 75.6 74.1 68 63.5 0.0 0.0 --- 0.00 29.804
07/02/2004 10:00 p 76.0 74.1 74.1 74.2 74.0 71 64.1 0.0 0.0 --- 0.00 29.815
07/02/2004 10:30 p 76.0 75.6 75.6 77.4 74.2 54 57.8 0.0 1.0 SSE 0.00 29.820
07/02/2004 11:00 p 76.8 77.4 77.4 77.7 76.9 49 56.8 0.0 2.0 SSE 0.00 29.824
07/02/2004 11:30 p 75.8 75.9 75.9 76.9 75.4 49 55.4 0.0 1.0 SSE 0.00 29.829
07/03/2004 12:00 a 74.4 75.4 75.4 75.6 75.1 47 53.8 0.0 1.0 SSE 0.00 29.838
07/03/2004 12:30 a 74.6 74.7 74.7 75.1 74.5 48 53.7 0.0 0.0 --- 0.00 29.840
07/03/2004 1:00 a 73.8 74.2 74.2 74.6 73.9 49 53.8 0.0 1.0 --- 0.00 29.844
07/03/2004 1:30 a 73.0 73.4 73.4 74.0 72.5 53 55.2 0.0 0.0 --- 0.00 29.852
07/03/2004 2:00 a 71.7 71.9 71.9 72.5 71.0 57 55.9 0.0 0.0 --- 0.00 29.850
07/03/2004 2:30 a 71.0 70.5 70.5 71.0 69.3 63 57.3 0.0 0.0 --- 0.00 29.857
07/03/2004 3:00 a 68.0 68.0 68.0 69.3 67.4 65 55.8 0.0 0.0 --- 0.00 29.849
07/03/2004 3:30 a 66.3 66.3 66.3 67.4 65.4 72 57.0 0.0 0.0 --- 0.00 29.845
07/03/2004 4:00 a 64.6 64.6 64.6 65.4 64.0 75 56.5 0.0 0.0 --- 0.00 29.847
07/03/2004 4:30 a 64.0 64.0 64.0 64.2 63.7 76 56.3 0.0 0.0 --- 0.00 29.851
07/03/2004 5:00 a 62.9 62.9 62.9 64.1 62.4 78 55.9 0.0 0.0 --- 0.00 29.857
07/03/2004 5:30 a 62.0 62.0 62.0 62.4 61.6 81 56.1 0.0 0.0 --- 0.00 29.854
07/03/2004 6:00 a 62.2 62.2 62.2 62.9 61.6 75 54.2 0.0 0.0 --- 0.00 29.858
07/03/2004 6:30 a 63.1 63.1 63.1 63.7 62.6 73 54.3 0.0 0.0 --- 0.00 29.856
07/03/2004 7:00 a 63.7 63.7 63.7 64.0 63.6 75 55.6 0.0 0.0 --- 0.00 29.860
07/03/2004 7:30 a 66.8 66.8 66.8 71.6 64.0 61 52.9 0.0 0.0 --- 0.00 29.866
07/03/2004 8:00 a 71.9 72.4 72.4 74.1 71.1 59 57.3 0.0 0.0 --- 0.00 29.869
07/03/2004 8:30 a 71.0 71.3 71.3 72.0 70.9 62 57.6 0.0 1.0 --- 0.00 29.872
07/03/2004 9:00 a 72.0 71.7 71.7 72.5 71.0 60 57.1 0.0 1.0 --- 0.00 29.876
07/03/2004 9:30 a 74.0 73.5 73.5 74.3 72.5 58 57.8 0.0 3.0 SE 0.00 29.874
07/03/2004 10:00 a 76.0 75.5 75.5 76.2 74.3 54 57.7 0.0 0.0 --- 0.00 29.874
07/03/2004 10:30 a 76.8 76.6 76.6 77.1 76.1 49 56.0 0.0 0.0 --- 0.00 29.878
07/03/2004 11:00 a 77.8 77.6 77.6 78.1 77.0 48 56.4 0.0 2.0 SE 0.00 29.871
07/03/2004 11:30 a 77.7 78.3 78.3 78.7 78.0 47 56.4 0.0 1.0 NE 0.00 29.871
07/03/2004 12:00 p 80.0 81.4 81.4 85.8 78.7 35 51.1 0.0 2.0 ESE 0.00 29.865
07/03/2004 12:30 p 86.2 88.9 88.9 94.0 84.1 26 49.6 0.0 3.0 SE 0.00 29.855
07/03/2004 1:00 p 92.6 95.4 95.4 97.2 93.2 24 52.9 0.0 3.0 SE 0.00 29.854
07/03/2004 1:30 p 96.2 96.8 96.8 98.4 95.1 23 52.9 0.0 3.0 SE 0.00 29.851
07/03/2004 2:00 p 93.4 95.3 95.3 97.0 92.5 26 55.0 0.0 3.0 E 0.00 29.844
07/03/2004 2:30 p 90.6 93.4 93.4 94.9 92.2 24 51.2 0.0 3.0 SSE 0.00 29.846
07/03/2004 3:00 p 92.2 94.8 94.8 95.3 94.3 23 51.3 0.0 2.0 SSE 0.00 29.845
07/03/2004 3:30 p 91.0 93.0 93.0 94.7 91.8 25 52.0 0.0 3.0 SSE 0.00 29.837
07/03/2004 4:00 p 87.3 89.0 89.0 91.8 86.5 31 54.5 0.0 2.0 SSE 0.00 29.835
07/03/2004 4:30 p 84.6 85.8 85.8 86.5 85.2 33 53.4 0.0 2.0 SSE 0.00 29.828
07/03/2004 5:00 p 83.6 85.1 85.1 86.1 84.4 33 52.8 0.0 2.0 SSE 0.00 29.823
07/03/2004 5:30 p 84.4 84.6 84.6 85.2 83.7 37 55.5 0.0 1.0 SE 0.00 29.806
07/03/2004 6:00 p 82.4 82.9 82.9 83.7 82.4 37 54.0 0.0 2.0 SE 0.00 29.808
07/03/2004 6:30 p 81.4 82.1 82.1 82.5 81.7 37 53.3 0.0 2.0 SSE 0.00 29.808
07/03/2004 7:00 p 80.8 81.0 81.0 81.7 80.5 39 53.7 0.0 1.0 SSE 0.00 29.813
07/03/2004 7:30 p 80.0 79.9 79.9 80.8 78.5 49 59.1 0.0 0.0 --- 0.00 29.813
07/03/2004 8:00 p 77.0 76.8 76.8 78.5 75.5 57 60.4 0.0 0.0 --- 0.00 29.818
07/03/2004 8:30 p 76.0 75.8 75.8 76.1 75.4 54 58.0 0.0 1.0 --- 0.00 29.821
07/03/2004 9:00 p 74.0 74.3 74.3 75.6 73.4 59 59.1 0.0 0.0 --- 0.00 29.830
07/03/2004 9:30 p 73.3 72.7 72.7 73.6 71.6 63 59.4 0.0 0.0 --- 0.00 29.846
07/03/2004 10:00 p 72.0 71.5 71.5 71.8 70.7 62 57.8 0.0 0.0 --- 0.00 29.855
07/03/2004 10:30 p 70.0 69.8 69.8 70.7 68.8 68 58.8 0.0 0.0 --- 0.00 29.854
07/03/2004 11:00 p 68.4 68.2 68.2 68.8 67.5 72 58.8 0.0 0.0 --- 0.00 29.865
07/03/2004 11:30 p 67.0 67.0 67.0 67.5 66.6 73 58.1 0.0 0.0 --- 0.00 29.870
07/04/2004 12:00 a 66.3 66.3 66.3 66.6 65.8 75 58.1 0.0 0.0 --- 0.00 29.877
07/04/2004 12:30 a 65.4 65.4 65.4 65.8 64.9 77 58.0 0.0 0.0 --- 0.00 29.877
07/04/2004 1:00 a 64.5 64.5 64.5 64.9 64.2 80 58.2 0.0 0.0 --- 0.00 29.867
07/04/2004 1:30 a 63.6 63.6 63.6 64.2 63.2 83 58.3 0.0 0.0 --- 0.00 29.865
07/04/2004 2:00 a 62.9 62.9 62.9 63.3 62.5 85 58.3 0.0 0.0 --- 0.00 29.866
07/04/2004 2:30 a 62.3 62.3 62.3 62.5 62.1 86 58.1 0.0 0.0 --- 0.00 29.866
07/04/2004 3:00 a 62.1 62.1 62.1 62.2 61.9 87 58.2 0.0 0.0 --- 0.00 29.864
07/04/2004 3:30 a 61.6 61.6 61.6 61.9 61.4 89 58.3 0.0 0.0 --- 0.00 29.858
07/04/2004 4:00 a 61.4 61.4 61.4 61.5 61.3 91 58.8 0.0 0.0 --- 0.00 29.854
07/04/2004 4:30 a 61.3 61.3 61.3 61.4 61.2 92 59.0 0.0 0.0 --- 0.00 29.862
07/04/2004 5:00 a 61.0 61.0 61.0 61.2 60.7 93 59.0 0.0 0.0 --- 0.00 29.863
07/04/2004 5:30 a 60.6 60.6 60.6 60.7 60.5 94 58.9 0.0 0.0 --- 0.00 29.868
07/04/2004 6:00 a 60.6 60.6 60.6 60.7 60.4 94 58.9 0.0 0.0 --- 0.00 29.869
07/04/2004 6:30 a 61.0 61.0 61.0 61.6 60.7 94 59.3 0.0 0.0 --- 0.00 29.872
07/04/2004 7:00 a 62.5 62.5 62.5 63.4 61.6 91 59.8 0.0 0.0 --- 0.00 29.877
07/04/2004 7:30 a 64.8 64.8 64.8 66.9 63.4 84 59.9 0.0 0.0 --- 0.00 29.880
07/04/2004 8:00 a 69.2 68.4 68.4 69.8 66.8 76 60.5 0.0 0.0 --- 0.00 29.878
07/04/2004 8:30 a 72.4 70.5 70.5 71.1 69.7 77 63.0 0.0 0.0 --- 0.00 29.883
07/04/2004 9:00 a 72.0 72.0 72.0 73.1 71.1 69 61.3 0.0 0.0 --- 0.00 29.873
07/04/2004 9:30 a 75.4 74.6 74.6 75.5 73.1 62 60.7 0.0 0.0 --- 0.00 29.874
07/04/2004 10:00 a 77.0 76.9 76.9 77.8 75.5 58 61.0 0.0 0.0 --- 0.00 29.872
07/04/2004 10:30 a 78.6 78.3 78.3 79.1 77.8 56 61.3 0.0 0.0 --- 0.00 29.873
07/04/2004 11:00 a 80.2 79.9 79.9 80.5 79.1 51 60.2 0.0 0.0 --- 0.00 29.872
07/04/2004 11:30 a 81.0 80.6 80.6 80.9 80.4 49 59.7 0.0 0.0 --- 0.00 29.863
07/04/2004 12:00 p 84.0 82.6 82.6 85.7 80.9 45 59.1 0.0 0.0 --- 0.00 29.852
07/04/2004 12:30 p 86.6 85.9 85.9 88.8 84.5 43 60.8 0.0 0.0 --- 0.00 29.855
07/04/2004 1:00 p 92.0 90.7 90.7 92.1 88.8 35 59.3 0.0 0.0 --- 0.00 29.840
07/04/2004 1:30 p 91.2 91.4 91.4 92.9 90.4 31 56.5 0.0 0.0 --- 0.00 29.833
07/04/2004 2:00 p 93.0 93.0 93.0 93.3 92.7 30 57.0 0.0 0.0 --- 0.00 29.834
07/04/2004 2:30 p 92.4 91.6 91.6 92.9 89.7 32 57.6 0.0 3.0 N 0.00 29.816
07/04/2004 3:00 p 87.9 89.3 89.3 90.8 88.1 33 56.5 0.0 2.0 N 0.00 29.815
07/04/2004 3:30 p 87.9 89.2 89.2 89.9 87.2 33 56.4 0.0 3.0 N 0.00 29.812
07/04/2004 4:00 p 85.2 84.8 84.8 87.2 83.4 41 58.5 0.0 3.0 N 0.00 29.813
07/04/2004 4:30 p 83.2 82.5 82.5 83.4 82.2 41 56.5 0.0 1.0 NNE 0.00 29.804
07/04/2004 5:00 p 82.6 82.8 82.8 83.3 82.4 38 54.6 0.0 3.0 N 0.00 29.799
07/04/2004 5:30 p 82.3 81.8 81.8 82.5 81.1 43 57.1 0.0 3.0 N 0.00 29.786
07/04/2004 6:00 p 81.0 80.5 80.5 81.1 80.1 43 56.0 0.0 4.0 N 0.00 29.788
07/04/2004 6:30 p 79.0 79.3 79.3 80.1 78.8 46 56.7 0.0 3.0 N 0.00 29.790
07/04/2004 7:00 p 78.1 77.8 77.8 78.7 77.0 51 58.2 0.0 2.0 N 0.00 29.786
07/04/2004 7:30 p 76.0 76.4 76.4 77.0 75.7 53 58.0 0.0 1.0 N 0.00 29.787
07/04/2004 8:00 p 75.0 75.3 75.3 75.7 74.8 54 57.5 0.0 1.0 N 0.00 29.798
07/04/2004 8:30 p 74.2 73.9 73.9 74.8 73.1 61 59.6 0.0 0.0 --- 0.00 29.796
07/04/2004 9:00 p 73.7 72.6 72.6 73.1 72.1 67 61.0 0.0 0.0 --- 0.00 29.800
07/04/2004 9:30 p 72.4 71.7 71.7 72.1 71.3 72 62.2 0.0 0.0 --- 0.00 29.808
07/04/2004 10:00 p 72.0 71.1 71.1 71.4 70.9 75 62.8 0.0 1.0 N 0.00 29.811
07/04/2004 10:30 p 72.6 70.7 70.7 70.9 70.5 78 63.5 0.0 0.0 --- 0.00 29.812
07/04/2004 11:00 p 73.0 70.5 70.5 70.7 70.4 80 64.0 0.0 0.0 --- 0.00 29.805
07/04/2004 11:30 p 73.0 70.9 70.9 71.1 70.7 80 64.4 0.0 1.0 N 0.00 29.799
07/05/2004 12:00 a 73.0 71.2 71.2 71.3 71.0 80 64.7 0.0 2.0 N 0.00 29.796
07/05/2004 12:30 a 73.0 71.3 71.3 71.4 71.3 81 65.2 0.0 1.0 --- 0.00 29.788
07/05/2004 1:00 a 73.0 71.4 71.4 71.4 71.4 82 65.6 0.0 2.0 N 0.00 29.786
07/05/2004 1:30 a 73.0 71.4 71.4 71.4 71.3 82 65.6 0.0 2.0 N 0.00 29.772
07/05/2004 2:00 a 74.0 71.5 71.5 71.6 71.4 83 66.1 0.0 0.0 --- 0.00 29.763
07/05/2004 2:30 a 74.0 70.0 70.0 71.6 68.5 100 70.0 0.0 0.0 --- 0.02 29.760
07/05/2004 3:00 a 72.0 68.6 68.6 68.7 68.4 100 68.6 0.0 0.0 --- 0.07 29.749
07/05/2004 3:30 a 72.0 68.8 68.8 68.9 68.6 100 68.8 0.0 2.0 N 0.07 29.741
07/05/2004 4:00 a 72.0 68.9 68.9 69.0 68.8 100 68.9 0.0 0.0 --- 0.05 29.725
07/05/2004 4:30 a 72.0 69.1 69.1 69.3 68.9 100 69.1 0.0 0.0 --- 0.04 29.730
07/05/2004 5:00 a 72.0 69.4 69.4 69.5 69.2 100 69.4 0.0 0.0 --- 0.02 29.727
07/05/2004 5:30 a 74.0 69.6 69.6 69.9 69.4 100 69.6 0.0 0.0 --- 0.00 29.726
07/05/2004 6:00 a 74.0 70.2 70.2 70.4 69.9 100 70.2 0.0 0.0 --- 0.00 29.731
07/05/2004 6:30 a 75.0 70.5 70.5 70.8 70.4 100 70.5 0.0 0.0 --- 0.00 29.726
07/05/2004 7:00 a 75.0 71.0 71.0 71.3 70.7 100 71.0 0.0 0.0 --- 0.00 29.726
07/05/2004 7:30 a 76.0 72.0 72.0 72.7 71.3 100 72.0 0.0 0.0 --- 0.00 29.724
07/05/2004 8:00 a 77.0 72.9 72.9 73.0 72.7 100 72.9 0.0 0.0 --- 0.00 29.730
07/05/2004 8:30 a 77.0 73.3 73.3 73.6 73.0 100 73.3 0.0 0.0 --- 0.00 29.733
07/05/2004 9:00 a 79.0 74.6 74.6 75.6 73.6 100 74.6 0.0 0.0 --- 0.00 29.718
07/05/2004 9:30 a 80.0 76.4 76.4 76.6 75.7 100 76.4 0.0 2.0 N 0.00 29.714
07/05/2004 10:00 a 82.0 77.0 77.0 77.5 76.3 100 77.0 0.0 1.0 --- 0.00 29.711
07/05/2004 10:30 a 84.0 78.1 78.1 79.2 77.5 100 78.1 0.0 1.0 --- 0.00 29.701
07/05/2004 11:00 a 90.0 79.6 79.6 80.8 78.7 100 79.6 0.0 3.0 SSE 0.00 29.693
07/05/2004 11:30 a 93.0 80.8 80.8 81.6 80.4 100 80.8 0.0 2.0 SSE 0.00 29.693
07/05/2004 12:00 p 93.6 82.0 82.0 83.7 81.5 94 80.1 0.0 3.0 N 0.00 29.688
07/05/2004 12:30 p 101.0 86.3 86.3 90.4 83.8 84 80.9 0.0 2.0 SE 0.00 29.678
07/05/2004 1:00 p 112.0 91.3 91.3 94.0 88.3 74 81.9 0.0 2.0 SSE 0.00 29.673
07/05/2004 1:30 p 108.8 92.8 92.8 95.1 90.9 62 77.9 0.0 1.0 SSE 0.00 29.660
07/05/2004 2:00 p 94.2 87.1 87.1 91.7 84.7 63 73.0 0.0 2.0 SSE 0.00 29.657
07/05/2004 2:30 p 95.8 89.7 89.7 95.7 86.4 52 69.7 0.0 4.0 SSE 0.00 29.647
07/05/2004 3:00 p 109.0 97.6 97.6 98.4 95.8 45 72.7 0.0 2.0 SSE 0.00 29.642
07/05/2004 3:30 p 99.2 92.0 92.0 96.5 89.3 52 71.9 0.0 2.0 SSE 0.00 29.633
07/05/2004 4:00 p 95.7 91.3 91.3 92.3 90.4 49 69.5 0.0 2.0 SE 0.00 29.631
07/05/2004 4:30 p 95.4 90.1 90.1 91.0 89.6 51 69.5 0.0 3.0 SSE 0.00 29.634
07/05/2004 5:00 p 94.9 89.2 89.2 89.9 88.5 53 69.8 0.0 3.0 SE 0.00 29.630
07/05/2004 5:30 p 94.3 88.6 88.6 89.1 88.2 51 68.2 0.0 3.0 SE 0.00 29.628
07/05/2004 6:00 p 93.2 87.6 87.6 88.6 87.1 54 68.9 0.0 3.0 W 0.00 29.623
07/05/2004 6:30 p 90.9 86.9 86.9 87.4 86.4 53 67.7 0.0 2.0 E 0.00 29.619
07/05/2004 7:00 p 90.1 86.2 86.2 86.5 85.4 57 69.2 0.0 2.0 SE 0.00 29.624
07/05/2004 7:30 p 89.8 84.6 84.6 85.4 83.8 62 70.2 0.0 0.0 --- 0.00 29.625
07/05/2004 8:00 p 86.6 83.2 83.2 83.8 82.6 64 69.8 0.0 0.0 --- 0.00 29.626
07/05/2004 8:30 p 86.4 81.7 81.7 82.6 81.0 68 70.1 0.0 0.0 --- 0.00 29.627
07/05/2004 9:00 p 83.2 80.4 80.4 81.0 80.0 71 70.1 0.0 0.0 --- 0.00 29.634
07/05/2004 9:30 p 83.8 79.5 79.5 80.0 79.0 74 70.5 0.0 0.0 --- 0.00 29.640
07/05/2004 10:00 p 82.4 78.7 78.7 79.0 78.2 77 70.9 0.0 0.0 --- 0.00 29.654
07/05/2004 10:30 p 81.6 78.0 78.0 78.1 77.9 78 70.6 0.0 0.0 --- 0.00 29.656
07/05/2004 11:00 p 80.8 78.4 78.4 79.5 77.8 74 69.4 0.0 1.0 --- 0.00 29.653
07/05/2004 11:30 p 81.6 79.4 79.4 79.6 78.9 73 70.0 0.0 1.0 ESE 0.00 29.669
07/06/2004 12:00 a 82.0 77.7 77.7 78.9 76.9 80 71.0 0.0 0.0 --- 0.00 29.671
07/06/2004 12:30 a 80.4 76.6 76.6 76.9 76.4 77 68.9 0.0 0.0 --- 0.00 29.677
07/06/2004 1:00 a 78.5 76.1 76.1 76.4 75.9 75 67.6 0.0 2.0 ESE 0.00 29.677
07/06/2004 1:30 a 78.7 75.6 75.6 75.9 74.9 77 67.9 0.0 0.0 --- 0.00 29.681
07/06/2004 2:00 a 76.0 74.4 74.4 74.9 73.9 79 67.5 0.0 1.0 --- 0.00 29.679
07/06/2004 2:30 a 75.0 73.0 73.0 73.9 72.2 84 67.9 0.0 0.0 --- 0.00 29.679
07/06/2004 3:00 a 74.0 71.7 71.7 72.2 71.4 86 67.3 0.0 0.0 --- 0.00 29.684
07/06/2004 3:30 a 73.0 71.3 71.3 71.7 70.8 86 66.9 0.0 0.0 --- 0.00 29.681
07/06/2004 4:00 a 72.0 70.1 70.1 70.8 69.4 90 67.0 0.0 0.0 --- 0.00 29.681
07/06/2004 4:30 a 71.0 69.1 69.1 69.4 68.9 87 65.1 0.0 0.0 --- 0.00 29.692
07/06/2004 5:00 a 71.6 70.4 70.4 70.8 69.3 78 63.2 0.0 2.0 SE 0.00 29.697
07/06/2004 5:30 a 71.2 70.4 70.4 70.7 70.2 76 62.5 0.0 3.0 SSE 0.00 29.702
07/06/2004 6:00 a 71.2 69.9 69.9 70.2 69.5 76 62.0 0.0 3.0 SSE 0.00 29.720
07/06/2004 6:30 a 69.6 69.3 69.3 69.5 69.0 73 60.3 0.0 4.0 SSE 0.00 29.735
07/06/2004 7:00 a 69.2 68.9 68.9 69.0 68.8 71 59.1 0.0 4.0 SSE 0.00 29.745
07/06/2004 7:30 a 70.0 70.4 70.4 74.3 68.8 61 56.3 0.0 3.0 SSE 0.00 29.754
07/06/2004 8:00 a 73.3 72.6 72.6 74.4 71.5 63 59.3 1.0 5.0 SSE 0.00 29.758
07/06/2004 8:30 a 71.0 70.9 70.9 71.6 70.4 66 59.0 1.0 4.0 SSE 0.00 29.767
07/06/2004 9:00 a 71.0 70.8 70.8 71.1 70.5 65 58.5 1.0 6.0 SSE 0.00 29.767
07/06/2004 9:30 a 72.0 72.1 72.1 72.9 71.1 64 59.3 0.0 4.0 SSE 0.00 29.763
07/06/2004 10:00 a 73.0 73.4 73.4 73.8 72.9 60 58.7 0.0 4.0 SSE 0.00 29.759
07/06/2004 10:30 a 74.2 74.4 74.4 75.3 73.5 61 60.1 1.0 5.0 SSE 0.00 29.745
07/06/2004 11:00 a 76.0 75.5 75.5 76.3 74.4 59 60.2 0.0 5.0 SSE 0.00 29.746
07/06/2004 11:30 a 77.0 76.9 76.9 77.5 76.2 58 61.0 0.0 5.0 SSE 0.00 29.738
07/06/2004 12:00 p 79.0 79.0 79.0 81.5 77.5 49 58.2 1.0 6.0 SSE 0.00 29.738
07/06/2004 12:30 p 85.2 85.8 85.8 91.0 81.0 36 55.8 1.0 4.0 SSE 0.00 29.734
07/06/2004 1:00 p 93.3 90.6 90.6 92.3 86.3 41 63.7 0.0 4.0 SSE 0.00 29.726
07/06/2004 1:30 p 86.0 86.8 86.8 91.3 83.4 35 55.9 1.0 5.0 SSE 0.00 29.719
07/06/2004 2:00 p 91.6 88.7 88.7 91.9 84.8 44 64.0 1.0 5.0 SSE 0.00 29.716
07/06/2004 2:30 p 83.1 82.2 82.2 84.8 80.8 51 62.3 1.0 5.0 SSE 0.00 29.716
07/06/2004 3:00 p 82.2 82.1 82.1 87.4 80.1 42 56.8 1.0 4.0 SSE 0.00 29.725
07/06/2004 3:30 p 90.8 89.7 89.7 90.7 87.5 36 59.2 0.0 4.0 SSE 0.00 29.724
07/06/2004 4:00 p 86.6 85.0 85.0 90.3 82.4 48 63.1 1.0 6.0 SSE 0.00 29.716
07/06/2004 4:30 p 82.7 82.3 82.3 82.7 81.8 47 60.1 1.0 7.0 SSE 0.00 29.722
07/06/2004 5:00 p 82.8 81.6 81.6 81.9 81.3 48 60.0 1.0 6.0 SSE 0.00 29.712
07/06/2004 5:30 p 81.0 81.2 81.2 81.6 80.7 50 60.8 0.0 4.0 SSE 0.00 29.717
07/06/2004 6:00 p 80.2 80.2 80.2 80.7 79.6 51 60.5 0.0 4.0 SE 0.00 29.712
07/06/2004 6:30 p 79.6 79.3 79.3 79.6 79.0 53 60.7 0.0 3.0 ESE 0.00 29.705
07/06/2004 7:00 p 78.6 78.4 78.4 79.0 78.0 56 61.4 0.0 3.0 SSE 0.00 29.697
07/06/2004 7:30 p 78.6 77.5 77.5 78.2 77.1 56 60.6 0.0 2.0 SSE 0.00 29.698
07/06/2004 8:00 p 77.2 76.8 76.8 77.3 75.6 61 62.3 0.0 2.0 SSE 0.00 29.706
07/06/2004 8:30 p 76.0 74.7 74.7 75.6 73.6 65 62.2 0.0 0.0 --- 0.00 29.720
07/06/2004 9:00 p 73.3 73.3 73.3 73.6 73.2 63 60.0 0.0 2.0 ESE 0.00 29.723
07/06/2004 9:30 p 73.8 72.8 72.8 73.7 71.4 68 61.6 0.0 0.0 --- 0.00 29.731
07/06/2004 10:00 p 71.4 71.2 71.2 71.5 70.6 72 61.7 0.0 0.0 --- 0.00 29.738
07/06/2004 10:30 p 70.6 70.2 70.2 70.8 69.3 73 61.1 0.0 0.0 --- 0.00 29.734
07/06/2004 11:00 p 69.4 68.4 68.4 69.3 67.5 77 60.9 0.0 0.0 --- 0.00 29.729
07/06/2004 11:30 p 66.7 66.7 66.7 67.5 66.1 80 60.3 0.0 0.0 --- 0.00 29.731
07/07/2004 12:00 a 65.6 65.6 65.6 66.1 65.0 83 60.3 0.0 0.0 --- 0.00 29.743
07/07/2004 12:30 a 64.6 64.6 64.6 65.0 64.3 86 60.3 0.0 0.0 --- 0.00 29.741
07/07/2004 1:00 a 64.0 64.0 64.0 64.3 63.7 87 60.1 0.0 0.0 --- 0.00 29.750
07/07/2004 1:30 a 63.7 63.7 63.7 63.8 63.6 88 60.1 0.0 0.0 --- 0.00 29.749
07/07/2004 2:00 a 63.4 63.4 63.4 63.6 63.0 88 59.8 0.0 0.0 --- 0.00 29.745
07/07/2004 2:30 a 62.7 62.7 62.7 63.0 62.2 91 60.0 0.0 0.0 --- 0.00 29.746
07/07/2004 3:00 a 62.1 62.1 62.1 62.2 61.9 92 59.8 0.0 0.0 --- 0.00 29.743
07/07/2004 3:30 a 61.7 61.7 61.7 61.9 61.6 94 60.0 0.0 0.0 --- 0.00 29.738
07/07/2004 4:00 a 61.5 61.5 61.5 61.7 61.2 94 59.8 0.0 0.0 --- 0.00 29.730
07/07/2004 4:30 a 61.1 61.1 61.1 61.2 61.0 95 59.7 0.0 0.0 --- 0.00 29.732
07/07/2004 5:00 a 60.9 60.9 60.9 61.0 60.7 96 59.8 0.0 0.0 --- 0.00 29.742
07/07/2004 5:30 a 60.8 60.8 60.8 61.0 60.5 97 59.9 0.0 0.0 --- 0.00 29.747
07/07/2004 6:00 a 60.4 60.4 60.4 60.6 60.3 97 59.5 0.0 0.0 --- 0.00 29.755
07/07/2004 6:30 a 60.6 60.6 60.6 61.0 60.3 98 60.0 0.0 0.0 --- 0.00 29.761
07/07/2004 7:00 a 61.9 61.9 61.9 62.9 61.0 95 60.5 0.0 0.0 --- 0.00 29.761
07/07/2004 7:30 a 66.0 66.0 66.0 73.0 62.9 75 57.9 0.0 0.0 --- 0.00 29.759
07/07/2004 8:00 a 74.2 72.9 72.9 74.5 71.5 72 63.4 0.0 0.0 --- 0.00 29.752
07/07/2004 8:30 a 74.1 73.0 73.0 73.9 72.6 71 63.1 0.0 1.0 E 0.00 29.753
07/07/2004 9:00 a 74.0 72.9 72.9 73.6 72.3 70 62.6 0.0 1.0 E 0.00 29.748
07/07/2004 9:30 a 75.2 74.3 74.3 75.5 73.6 66 62.2 0.0 0.0 --- 0.00 29.739
07/07/2004 10:00 a 76.4 76.4 76.4 77.1 75.5 62 62.4 0.0 2.0 NE 0.00 29.735
07/07/2004 10:30 a 79.3 77.9 77.9 78.6 77.1 63 64.3 0.0 2.0 NE 0.00 29.737
07/07/2004 11:00 a 81.0 79.0 79.0 79.6 78.5 60 63.9 0.0 2.0 NNE 0.00 29.737
07/07/2004 11:30 a 81.8 79.9 79.9 80.7 79.2 59 64.3 0.0 2.0 NNE 0.00 29.730
07/07/2004 12:00 p 83.4 81.5 81.5 85.4 80.7 54 63.3 0.0 2.0 NE 0.00 29.719
07/07/2004 12:30 p 88.0 88.0 88.0 92.8 85.5 40 60.7 0.0 3.0 SE 0.00 29.718
07/07/2004 1:00 p 96.4 93.9 93.9 95.4 92.8 36 62.9 0.0 4.0 NNE 0.00 29.714
07/07/2004 1:30 p 97.8 94.6 94.6 95.4 93.6 37 64.3 1.0 4.0 NNE 0.00 29.708
07/07/2004 2:00 p 98.6 95.2 95.2 95.8 94.4 39 66.4 0.0 3.0 NNE 0.00 29.701
07/07/2004 11:00 p 73.0 71.2 71.2 71.3 71.0 89 67.8 0.0 0.0 --- 0.00 29.672
07/07/2004 11:30 p 74.0 71.6 71.6 71.9 71.3 87 67.5 0.0 0.0 --- 0.00 29.678
07/08/2004 12:00 a 74.0 71.6 71.6 71.6 71.5 86 67.2 0.0 0.0 --- 0.00 29.680
07/08/2004 12:30 a 74.0 72.2 72.2 72.9 71.6 81 66.1 0.0 0.0 --- 0.00 29.674
07/08/2004 1:00 a 75.0 73.3 73.3 73.5 73.0 80 66.8 0.0 0.0 --- 0.00 29.667
07/08/2004 1:30 a 75.0 73.3 73.3 73.4 73.2 81 67.1 0.0 2.0 SW 0.00 29.660
07/08/2004 2:00 a 75.0 73.2 73.2 73.3 73.1 82 67.4 0.0 1.0 --- 0.00 29.646
07/08/2004 2:30 a 75.0 72.9 72.9 73.2 72.6 85 68.1 0.0 0.0 --- 0.00 29.641
07/08/2004 3:00 a 74.0 72.0 72.0 72.6 71.5 89 68.6 0.0 0.0 --- 0.00 29.640
07/08/2004 3:30 a 74.0 71.7 71.7 72.0 71.5 89 68.3 0.0 0.0 --- 0.00 29.642
07/08/2004 4:00 a 74.0 72.1 72.1 72.2 71.9 90 69.0 0.0 0.0 --- 0.00 29.641
07/08/2004 4:30 a 74.2 72.0 72.0 72.2 71.9 91 69.2 0.0 0.0 --- 0.00 29.642
07/08/2004 5:00 a 74.4 72.2 72.2 72.2 72.2 92 69.8 0.0 0.0 --- 0.00 29.650
07/08/2004 5:30 a 74.6 72.2 72.2 72.2 72.1 93 70.1 0.0 0.0 --- 0.00 29.661
07/08/2004 6:00 a 75.0 71.2 71.2 72.1 70.8 100 71.2 0.0 0.0 --- 0.00 29.660
07/08/2004 6:30 a 75.0 70.8 70.8 70.8 70.7 100 70.8 0.0 0.0 --- 0.00 29.675
07/08/2004 7:00 a 75.0 70.9 70.9 71.0 70.8 100 70.9 0.0 0.0 --- 0.00 29.679
07/08/2004 7:30 a 74.8 72.0 72.0 75.5 70.8 94 70.2 0.0 0.0 --- 0.00 29.682
07/08/2004 8:00 a 78.3 74.7 74.7 75.7 74.0 93 72.5 0.0 1.0 --- 0.00 29.688
07/08/2004 8:30 a 78.2 75.0 75.0 75.6 74.6 92 72.5 0.0 1.0 SW 0.00 29.682
07/08/2004 9:00 a 79.8 75.8 75.8 76.9 75.0 88 72.0 0.0 1.0 --- 0.00 29.680
07/08/2004 9:30 a 82.4 77.8 77.8 78.7 77.0 84 72.6 0.0 2.0 SW 0.00 29.684
07/08/2004 10:00 a 83.2 78.8 78.8 79.2 78.4 81 72.5 0.0 2.0 SSW 0.00 29.693
07/08/2004 10:30 a 83.0 79.9 79.9 80.8 78.9 70 69.2 0.0 3.0 ESE 0.00 29.697
07/08/2004 11:00 a 84.6 80.9 80.9 81.2 80.7 68 69.4 0.0 2.0 SSE 0.00 29.693
07/08/2004 11:30 a 85.5 82.0 82.0 82.6 81.1 65 69.1 0.0 2.0 SE 0.00 29.694
07/08/2004 12:00 p 85.0 83.2 83.2 86.8 82.5 57 66.4 0.0 2.0 SE 0.00 29.698
07/08/2004 12:30 p 92.4 89.2 89.2 94.1 86.7 46 65.7 0.0 2.0 SSE 0.00 29.695
07/08/2004 1:00 p 100.0 95.0 95.0 96.3 92.7 42 68.3 0.0 2.0 SSE 0.00 29.687
07/08/2004 1:30 p 98.8 93.2 93.2 96.8 89.6 47 70.0 0.0 3.0 NE 0.00 29.683
07/08/2004 2:00 p 98.4 93.9 93.9 96.5 91.8 41 66.6 0.0 3.0 ENE 0.00 29.680
07/08/2004 2:30 p 93.9 93.4 93.4 96.3 90.8 33 60.0 0.0 4.0 SSE 0.00 29.667
07/08/2004 3:00 p 99.4 97.0 97.0 97.6 96.3 31 61.4 0.0 3.0 SSE 0.00 29.660
07/08/2004 3:30 p 97.4 95.8 95.8 97.4 94.6 31 60.3 0.0 5.0 SSW 0.00 29.657
07/08/2004 4:00 p 92.4 91.3 91.3 94.6 90.2 37 61.4 0.0 3.0 NNE 0.00 29.656
07/08/2004 4:30 p 90.4 89.4 89.4 90.2 88.4 41 62.6 0.0 3.0 SSE 0.00 29.659
07/08/2004 5:00 p 87.8 88.2 88.2 88.5 87.9 39 60.1 0.0 4.0 SSE 0.00 29.653
07/08/2004 5:30 p 88.2 86.6 86.6 88.1 86.1 44 62.1 0.0 4.0 SSE 0.00 29.651
07/08/2004 6:00 p 86.6 85.0 85.0 86.2 84.1 48 63.1 0.0 2.0 SE 0.00 29.654
07/08/2004 6:30 p 86.3 84.1 84.1 84.7 82.5 53 65.1 1.0 6.0 SSE 0.00 29.675
07/08/2004 7:00 p 82.4 80.9 80.9 82.4 79.9 57 64.3 0.0 6.0 SSE 0.00 29.674
07/08/2004 7:30 p 81.0 79.4 79.4 79.9 78.7 60 64.3 0.0 3.0 SSE 0.00 29.676
07/08/2004 8:00 p 79.4 77.9 77.9 78.7 76.9 64 64.8 0.0 2.0 ESE 0.00 29.685
07/08/2004 8:30 p 78.0 75.9 75.9 76.9 74.7 70 65.4 0.0 0.0 --- 0.00 29.685
07/08/2004 9:00 p 76.0 73.5 73.5 74.7 72.5 74 64.7 0.0 0.0 --- 0.00 29.691
07/08/2004 9:30 p 73.4 71.8 71.8 72.5 71.4 77 64.2 0.0 0.0 --- 0.00 29.696
07/08/2004 10:00 p 72.8 71.0 71.0 71.4 70.4 79 64.2 0.0 0.0 --- 0.00 29.710
07/08/2004 10:30 p 72.0 70.1 70.1 70.4 69.8 82 64.4 0.0 0.0 --- 0.00 29.706
07/08/2004 11:00 p 71.0 69.3 69.3 69.8 68.7 84 64.3 0.0 0.0 --- 0.00 29.711
07/08/2004 11:30 p 70.0 68.4 68.4 68.7 68.2 87 64.4 0.0 0.0 --- 0.00 29.724
07/09/2004 12:00 a 70.0 68.0 68.0 68.2 67.9 88 64.3 0.0 0.0 --- 0.00 29.727
07/09/2004 12:30 a 70.0 68.4 68.4 68.8 67.9 85 63.7 0.0 0.0 --- 0.00 29.729
07/09/2004 1:00 a 70.0 68.1 68.1 68.7 67.9 86 63.8 0.0 0.0 --- 0.00 29.734
07/09/2004 1:30 a 70.0 68.0 68.0 68.0 67.9 82 62.3 0.0 0.0 --- 0.00 29.739
07/09/2004 2:00 a 70.0 68.2 68.2 68.3 67.9 80 61.8 0.0 0.0 --- 0.00 29.739
07/09/2004 2:30 a 67.6 67.6 67.6 67.9 67.4 79 60.9 0.0 0.0 --- 0.00 29.743
07/09/2004 3:00 a 67.2 67.2 67.2 67.6 66.6 82 61.5 0.0 0.0 --- 0.00 29.745
07/09/2004 3:30 a 66.2 66.2 66.2 66.6 65.8 85 61.6 0.0 0.0 --- 0.00 29.756
07/09/2004 4:00 a 65.7 65.7 65.7 65.8 65.4 84 60.7 0.0 0.0 --- 0.00 29.757
07/09/2004 4:30 a 64.8 64.8 64.8 65.4 64.7 86 60.5 0.0 0.0 --- 0.00 29.757
07/09/2004 5:00 a 63.7 63.7 63.7 64.6 63.2 87 59.8 0.0 0.0 --- 0.00 29.775
07/09/2004 5:30 a 62.9 62.9 62.9 63.2 62.7 88 59.3 0.0 0.0 --- 0.00 29.786
07/09/2004 6:00 a 62.7 62.7 62.7 63.2 62.4 86 58.5 0.0 0.0 --- 0.00 29.793
07/09/2004 6:30 a 63.3 63.3 63.3 63.6 63.1 87 59.4 0.0 0.0 --- 0.00 29.806
07/09/2004 7:00 a 63.4 63.4 63.4 63.9 63.1 87 59.5 0.0 0.0 --- 0.00 29.812
07/09/2004 7:30 a 65.1 65.1 65.1 66.8 63.9 82 59.5 0.0 0.0 --- 0.00 29.822
07/09/2004 8:00 a 67.6 67.6 67.6 68.4 66.8 75 59.4 0.0 0.0 --- 0.00 29.828
07/09/2004 8:30 a 70.0 70.0 70.0 70.8 68.4 66 58.1 0.0 0.0 --- 0.00 29.836
07/09/2004 9:00 a 71.0 71.3 71.3 72.2 70.5 62 57.6 0.0 4.0 SSE 0.00 29.837
07/09/2004 9:30 a 73.0 73.0 73.0 74.0 72.2 55 55.9 0.0 3.0 SSE 0.00 29.834
07/09/2004 10:00 a 74.0 74.4 74.4 74.7 74.0 53 56.2 0.0 4.0 SSE 0.00 29.818
07/09/2004 10:30 a 76.0 75.6 75.6 76.5 74.5 50 55.7 0.0 4.0 SE 0.00 29.818
07/09/2004 11:00 a 75.8 76.2 76.2 76.6 76.0 49 55.7 1.0 4.0 SSE 0.00 29.816
07/09/2004 11:30 a 75.6 76.1 76.1 77.0 75.0 48 55.0 0.0 5.0 SSE 0.00 29.824
07/09/2004 12:00 p 76.4 76.9 76.9 77.7 75.2 47 55.2 0.0 4.0 SSE 0.00 29.820
07/09/2004 12:30 p 79.6 81.0 81.0 87.1 76.8 33 49.2 0.0 4.0 SSE 0.00 29.817
07/09/2004 1:00 p 81.0 81.4 81.4 87.2 79.0 42 56.1 0.0 4.0 SSE 0.00 29.825
07/09/2004 1:30 p 81.0 81.1 81.1 85.1 77.8 45 57.8 1.0 4.0 SSE 0.00 29.837
07/09/2004 2:00 p 81.0 81.1 81.1 83.0 77.5 42 55.9 0.0 5.0 SSE 0.00 29.839
07/09/2004 2:30 p 82.5 81.5 81.5 83.9 79.9 45 58.1 0.0 5.0 SSE 0.00 29.838
07/09/2004 3:00 p 80.4 81.4 81.4 84.7 79.1 37 52.7 0.0 3.0 SE 0.00 29.835
07/09/2004 3:30 p 83.0 82.9 82.9 85.6 80.5 40 56.1 0.0 4.0 SSE 0.00 29.830
07/09/2004 4:00 p 81.0 80.9 80.9 82.4 80.0 45 57.6 1.0 4.0 SSE 0.00 29.838
07/09/2004 4:30 p 79.0 79.0 79.0 80.7 77.5 47 57.1 0.0 5.0 SSE 0.00 29.840
07/09/2004 5:00 p 79.0 78.8 78.8 79.7 78.0 47 56.9 1.0 5.0 SSE 0.00 29.844
07/09/2004 5:30 p 79.0 78.7 78.7 79.7 77.5 48 57.4 1.0 4.0 SSE 0.00 29.847
07/09/2004 6:00 p 77.0 77.0 77.0 77.5 76.4 51 57.5 0.0 5.0 SSE 0.00 29.851
07/09/2004 6:30 p 76.0 76.2 76.2 76.5 75.7 51 56.8 1.0 5.0 SSE 0.00 29.857
07/09/2004 7:00 p 75.0 75.1 75.1 75.7 74.5 52 56.3 1.0 6.0 SSE 0.00 29.866
07/09/2004 7:30 p 74.0 73.9 73.9 74.5 73.2 54 56.2 1.0 5.0 SSE 0.00 29.876
07/09/2004 8:00 p 73.0 72.7 72.7 73.2 72.0 53 54.6 1.0 4.0 SSE 0.00 29.886
07/09/2004 8:30 p 70.0 71.3 71.3 72.0 70.5 55 54.3 0.0 4.0 SSE 0.00 29.888
07/09/2004 9:00 p 69.4 70.1 70.1 70.5 69.6 57 54.2 0.0 0.0 --- 0.00 29.896
07/09/2004 9:30 p 68.0 68.2 68.2 69.6 66.5 66 56.4 0.0 0.0 --- 0.00 29.903
07/09/2004 10:00 p 65.5 65.5 65.5 66.5 64.9 71 55.9 0.0 0.0 --- 0.00 29.907
07/09/2004 10:30 p 64.2 64.2 64.2 64.9 63.5 73 55.4 0.0 0.0 --- 0.00 29.913
07/09/2004 11:00 p 63.1 63.1 63.1 63.6 62.4 77 55.8 0.0 0.0 --- 0.00 29.914
07/09/2004 11:30 p 62.0 62.0 62.0 62.4 61.6 78 55.1 0.0 0.0 --- 0.00 29.921
07/10/2004 12:00 a 61.0 61.0 61.0 61.6 60.3 82 55.5 0.0 0.0 --- 0.00 29.913
07/10/2004 12:30 a 61.0 61.0 61.0 61.6 60.3 82 55.5 0.0 0.0 --- 0.00 29.922
07/10/2004 1:00 a 60.6 60.6 60.6 61.5 60.0 86 56.4 0.0 0.0 --- 0.00 29.923
07/10/2004 1:30 a 60.2 60.2 60.2 60.5 59.9 85 55.7 0.0 0.0 --- 0.00 29.915
07/10/2004 2:00 a 59.9 59.9 59.9 60.1 59.4 87 56.0 0.0 0.0 --- 0.00 29.906
07/10/2004 2:30 a 58.8 58.8 58.8 59.4 58.5 90 55.9 0.0 0.0 --- 0.00 29.904
07/10/2004 3:00 a 58.4 58.4 58.4 58.5 58.1 90 55.5 0.0 0.0 --- 0.00 29.902
07/10/2004 3:30 a 57.9 57.9 57.9 58.1 57.8 92 55.6 0.0 0.0 --- 0.00 29.896
07/10/2004 4:00 a 57.5 57.5 57.5 57.8 57.3 94 55.8 0.0 0.0 --- 0.00 29.897
07/10/2004 4:30 a 57.1 57.1 57.1 57.3 56.9 94 55.4 0.0 0.0 --- 0.00 29.907
07/10/2004 5:00 a 56.9 56.9 56.9 57.0 56.8 95 55.5 0.0 0.0 --- 0.00 29.915
07/10/2004 5:30 a 56.6 56.6 56.6 56.9 56.4 95 55.2 0.0 0.0 --- 0.00 29.917
07/10/2004 6:00 a 56.5 56.5 56.5 56.6 56.3 96 55.4 0.0 0.0 --- 0.00 29.924
07/10/2004 6:30 a 56.8 56.8 56.8 57.4 56.4 96 55.7 0.0 0.0 --- 0.00 29.936
07/10/2004 7:00 a 58.5 58.5 58.5 59.9 57.4 93 56.5 0.0 0.0 --- 0.00 29.943
07/10/2004 7:30 a 62.1 62.1 62.1 67.2 59.9 78 55.2 0.0 0.0 --- 0.00 29.944
07/10/2004 8:00 a 67.3 67.3 67.3 69.0 66.2 74 58.7 0.0 0.0 --- 0.00 29.950
07/10/2004 8:30 a 69.8 68.5 68.5 69.3 68.1 74 59.9 0.0 0.0 --- 0.00 29.947
07/10/2004 9:00 a 70.0 69.6 69.6 70.8 68.6 70 59.4 0.0 0.0 --- 0.00 29.945
07/10/2004 9:30 a 72.0 71.5 71.5 71.9 70.9 66 59.6 0.0 3.0 SSE 0.00 29.938
07/10/2004 10:00 a 73.1 72.8 72.8 73.9 71.6 61 58.6 0.0 3.0 SSE 0.00 29.945
07/10/2004 10:30 a 74.6 73.6 73.6 74.0 73.3 63 60.2 0.0 2.0 SSE 0.00 29.936
07/10/2004 11:00 a 75.0 75.4 75.4 76.5 73.8 58 59.6 0.0 5.0 SSE 0.00 29.933
07/10/2004 11:30 a 77.0 76.8 76.8 77.8 76.1 55 59.4 0.0 3.0 SSE 0.00 29.927
07/10/2004 12:00 p 79.0 79.0 79.0 81.0 77.8 48 57.7 0.0 2.0 SE 0.00 29.910
07/10/2004 12:30 p 82.6 84.2 84.2 89.6 80.8 33 52.0 0.0 4.0 SSE 0.00 29.915
07/10/2004 1:00 p 87.6 89.1 89.1 92.5 87.1 32 55.4 0.0 5.0 SSE 0.00 29.908
07/10/2004 1:30 p 92.2 93.1 93.1 94.5 91.3 28 55.2 0.0 3.0 SSE 0.00 29.905
07/10/2004 2:00 p 93.2 94.1 94.1 94.9 93.2 28 56.0 0.0 3.0 SSE 0.00 29.907
07/10/2004 2:30 p 92.6 93.1 93.1 94.7 91.6 29 56.2 0.0 4.0 SSE 0.00 29.899
07/10/2004 3:00 p 93.9 92.9 92.9 94.6 92.1 33 59.6 0.0 4.0 SSE 0.00 29.896
07/10/2004 3:30 p 92.0 89.3 89.3 93.2 84.2 45 65.2 0.0 3.0 SSE 0.00 29.892
07/10/2004 4:00 p 85.6 85.4 85.4 85.9 84.4 43 60.4 0.0 4.0 SSE 0.00 29.890
07/10/2004 4:30 p 85.8 84.9 84.9 85.9 83.1 44 60.6 0.0 3.0 SSE 0.00 29.883
07/10/2004 5:00 p 86.4 85.4 85.4 86.2 84.0 47 62.9 0.0 3.0 SSE 0.00 29.875
07/10/2004 5:30 p 85.0 84.2 84.2 84.6 83.4 45 60.6 0.0 3.0 SSE 0.00 29.867
07/10/2004 6:00 p 84.6 82.6 82.6 83.4 82.0 48 60.9 0.0 3.0 SSE 0.00 29.869
07/10/2004 6:30 p 83.0 81.7 81.7 82.2 81.2 50 61.3 0.0 2.0 SSE 0.00 29.871
07/10/2004 7:00 p 81.4 80.6 80.6 81.1 80.0 52 61.4 0.0 2.0 SSE 0.00 29.873
07/10/2004 7:30 p 80.8 79.6 79.6 80.0 79.1 54 61.5 0.0 0.0 --- 0.00 29.868
07/10/2004 8:00 p 80.6 78.5 78.5 79.1 77.6 58 62.5 0.0 0.0 --- 0.00 29.877
07/10/2004 8:30 p 77.2 76.4 76.4 77.6 75.2 66 64.2 0.0 0.0 --- 0.00 29.884
07/10/2004 9:00 p 75.6 74.1 74.1 75.2 73.1 68 62.9 0.0 0.0 --- 0.00 29.888
07/12/2004 11:42 p 76.0 72.4 72.4 98.4 61.2 100 72.4 0.0 5.0 --- 0.00 29.745
07/13/2004 12:00 a 66.6 66.6 66.6 66.9 66.2 100 66.6 0.0 2.0 SE 0.01 29.748
07/13/2004 12:30 a 65.6 65.6 65.6 66.2 65.3 100 65.6 0.0 3.0 E 0.02 29.740
07/13/2004 1:00 a 65.0 65.0 65.0 65.3 64.7 100 65.0 0.0 4.0 SSE 0.02 29.723
07/13/2004 1:30 a 64.6 64.6 64.6 64.7 64.5 100 64.6 0.0 2.0 SE 0.02 29.715
07/13/2004 2:00 a 64.3 64.3 64.3 64.5 64.2 100 64.3 0.0 3.0 NNE 0.02 29.702
07/13/2004 2:30 a 63.9 63.9 63.9 64.2 63.7 100 63.9 0.0 2.0 E 0.07 29.687
07/13/2004 3:00 a 63.6 63.6 63.6 63.7 63.4 100 63.6 0.0 3.0 WSW 0.08 29.678
07/13/2004 3:30 a 63.4 63.4 63.4 63.5 63.3 100 63.4 0.0 4.0 SSE 0.08 29.670
07/13/2004 4:00 a 63.1 63.1 63.1 63.3 63.0 100 63.1 0.0 3.0 SSE 0.09 29.672
07/13/2004 4:30 a 63.1 63.1 63.1 63.2 63.0 100 63.1 0.0 3.0 S 0.07 29.674
07/13/2004 5:00 a 63.2 63.2 63.2 63.2 63.2 100 63.2 0.0 4.0 SSE 0.07 29.675
07/13/2004 5:30 a 63.1 63.1 63.1 63.2 63.0 100 63.1 0.0 2.0 SSE 0.08 29.674
07/13/2004 6:00 a 63.1 63.1 63.1 63.1 63.0 100 63.1 0.0 4.0 SSE 0.07 29.676
07/13/2004 6:30 a 63.2 63.2 63.2 63.3 63.1 100 63.2 0.0 3.0 SSE 0.07 29.673
07/13/2004 7:00 a 63.4 63.4 63.4 63.6 63.3 100 63.4 0.0 3.0 SSE 0.06 29.679
07/13/2004 7:30 a 63.7 63.7 63.7 64.0 63.6 100 63.7 0.0 2.0 S 0.06 29.684
07/13/2004 8:00 a 63.9 63.9 63.9 64.0 63.9 100 63.9 0.0 4.0 SSE 0.06 29.694
07/13/2004 8:30 a 64.0 64.0 64.0 64.1 64.0 100 64.0 0.0 3.0 SSE 0.05 29.697
07/13/2004 9:00 a 64.3 64.3 64.3 64.4 64.1 100 64.3 0.0 2.0 SE 0.05 29.692
07/13/2004 9:30 a 64.8 64.8 64.8 65.2 64.4 100 64.8 0.0 5.0 SE 0.04 29.686
07/13/2004 10:00 a 65.4 65.4 65.4 65.5 65.2 100 65.4 1.0 4.0 SSE 0.03 29.689
07/13/2004 10:30 a 65.6 65.6 65.6 66.1 65.4 100 65.6 1.0 4.0 SSE 0.03 29.686
07/13/2004 11:00 a 66.4 66.4 66.4 66.9 66.0 100 66.4 0.0 5.0 SSE 0.02 29.690
07/13/2004 11:30 a 67.0 67.0 67.0 67.1 66.9 100 67.0 0.0 5.0 S 0.00 29.689
07/13/2004 12:00 p 67.0 67.0 67.0 67.1 66.9 100 67.0 1.0 6.0 SSE 0.00 29.687
07/13/2004 12:30 p 67.1 67.1 67.1 67.2 67.0 100 67.1 1.0 5.0 SSE 0.00 29.691
07/13/2004 1:00 p 67.5 67.5 67.5 67.7 67.1 100 67.5 0.0 5.0 SSE 0.00 29.693
07/13/2004 1:30 p 67.7 67.7 67.7 68.4 67.4 100 67.7 1.0 5.0 SSE 0.00 29.687
07/13/2004 2:00 p 72.0 69.2 69.2 69.5 68.4 100 69.2 1.0 5.0 SSE 0.00 29.670
07/13/2004 2:30 p 72.0 68.7 68.7 69.1 68.4 100 68.7 0.0 5.0 SSE 0.00 29.673
07/13/2004 3:00 p 72.0 68.7 68.7 69.1 68.5 100 68.7 0.0 4.0 SSE 0.00 29.674
07/13/2004 3:30 p 72.0 68.9 68.9 69.0 68.8 100 68.9 1.0 4.0 SSE 0.00 29.673
07/13/2004 4:00 p 72.0 68.8 68.8 68.9 68.7 100 68.8 0.0 4.0 SSE 0.00 29.667
07/13/2004 4:30 p 72.0 68.8 68.8 68.9 68.6 100 68.8 0.0 3.0 SSE 0.00 29.663
07/13/2004 5:00 p 72.0 69.2 69.2 69.6 68.8 100 69.2 1.0 4.0 SSE 0.00 29.655
07/13/2004 5:30 p 72.0 69.4 69.4 69.6 69.3 100 69.4 0.0 3.0 SSE 0.00 29.659
07/13/2004 6:00 p 72.0 69.3 69.3 69.4 69.2 100 69.3 0.0 3.0 SSE 0.00 29.649
07/13/2004 6:30 p 72.0 69.3 69.3 69.4 69.2 100 69.3 0.0 3.0 SSE 0.00 29.652
07/13/2004 7:00 p 72.0 69.2 69.2 69.3 69.1 100 69.2 0.0 3.0 SSE 0.00 29.653
07/13/2004 7:30 p 72.0 69.1 69.1 69.3 69.0 100 69.1 0.0 2.0 SSE 0.00 29.654
07/13/2004 8:00 p 72.0 68.8 68.8 69.0 68.7 100 68.8 0.0 3.0 SSE 0.00 29.646
07/13/2004 8:30 p 72.0 68.5 68.5 68.7 68.3 100 68.5 0.0 2.0 SSE 0.00 29.632
07/13/2004 9:00 p 70.0 68.1 68.1 68.3 68.0 100 68.1 0.0 2.0 SSE 0.00 29.632
07/13/2004 9:30 p 70.0 68.4 68.4 68.5 68.3 100 68.4 0.0 2.0 SSE 0.00 29.627
07/13/2004 10:00 p 67.9 67.9 67.9 68.3 67.4 100 67.9 0.0 2.0 SSE 0.00 29.632
07/13/2004 10:30 p 67.4 67.4 67.4 67.5 67.3 100 67.4 0.0 1.0 SSE 0.00 29.638
07/13/2004 11:00 p 67.4 67.4 67.4 67.5 67.1 94 65.6 0.0 1.0 --- 0.00 29.640
07/13/2004 11:30 p 66.9 66.9 66.9 67.1 66.7 94 65.1 0.0 0.0 --- 0.00 29.639
07/14/2004 12:00 a 66.7 66.7 66.7 66.8 66.6 95 65.2 0.0 0.0 --- 0.00 29.638
07/14/2004 12:30 a 66.7 66.7 66.7 66.8 66.6 94 64.9 0.0 1.0 --- 0.00 29.638
07/14/2004 1:00 a 66.8 66.8 66.8 66.9 66.7 93 64.7 0.0 0.0 --- 0.00 29.637
07/14/2004 1:30 a 66.9 66.9 66.9 67.0 66.9 92 64.5 0.0 1.0 SSE 0.00 29.636
07/14/2004 2:00 a 66.9 66.9 66.9 66.9 66.7 93 64.8 0.0 2.0 SSE 0.00 29.630
07/14/2004 2:30 a 66.4 66.4 66.4 66.7 66.2 95 64.9 0.0 1.0 SSE 0.00 29.626
07/14/2004 3:00 a 66.1 66.1 66.1 66.3 66.0 94 64.3 0.0 0.0 --- 0.00 29.617
07/14/2004 3:30 a 66.1 66.1 66.1 66.1 66.0 94 64.3 0.0 0.0 --- 0.00 29.602
07/14/2004 4:00 a 65.8 65.8 65.8 66.1 65.3 97 64.9 0.0 1.0 SSE 0.00 29.595
07/14/2004 4:30 a 65.2 65.2 65.2 65.3 65.2 97 64.3 0.0 0.0 --- 0.00 29.591
07/14/2004 5:00 a 65.6 65.6 65.6 65.8 65.3 95 64.1 0.0 1.0 --- 0.00 29.585
07/14/2004 5:30 a 65.9 65.9 65.9 65.9 65.8 95 64.4 0.0 2.0 SSE 0.00 29.590
07/14/2004 6:00 a 65.8 65.8 65.8 65.9 65.8 94 64.0 0.0 0.0 --- 0.00 29.573
07/14/2004 6:30 a 65.9 65.9 65.9 66.0 65.9 94 64.1 0.0 0.0 --- 0.00 29.572
07/14/2004 7:00 a 66.1 66.1 66.1 66.2 66.0 94 64.3 0.0 0.0 --- 0.00 29.569
07/14/2004 7:30 a 66.3 66.3 66.3 66.5 66.1 93 64.2 0.0 1.0 SSE 0.00 29.569
07/14/2004 8:00 a 66.6 66.6 66.6 66.9 66.5 93 64.5 0.0 0.0 --- 0.00 29.571
07/14/2004 8:30 a 67.3 67.3 67.3 67.5 66.9 91 64.6 0.0 0.0 --- 0.00 29.563
07/14/2004 9:00 a 67.9 67.9 67.9 68.5 67.4 90 64.9 0.0 0.0 --- 0.00 29.554
07/14/2004 9:30 a 71.0 68.8 68.8 69.0 68.5 90 65.8 0.0 1.0 --- 0.00 29.559
07/14/2004 10:00 a 71.0 68.9 68.9 69.0 68.7 88 65.2 0.0 1.0 SSE 0.00 29.562
07/14/2004 10:30 a 71.0 69.4 69.4 69.5 69.0 88 65.7 0.0 0.0 --- 0.00 29.563
07/14/2004 11:00 a 71.0 69.4 69.4 69.8 69.1 86 65.0 0.0 0.0 --- 0.00 29.569
07/14/2004 11:30 a 72.0 70.3 70.3 71.1 69.8 85 65.6 0.0 0.0 --- 0.00 29.561
07/14/2004 12:00 p 74.0 72.2 72.2 73.8 71.1 80 65.7 0.0 2.0 E 0.00 29.534
07/14/2004 12:30 p 76.0 74.0 74.0 74.3 73.8 78 66.7 0.0 0.0 --- 0.00 29.530
07/14/2004 1:00 p 76.8 75.1 75.1 78.9 74.2 69 64.2 0.0 2.0 ENE 0.00 29.524
07/14/2004 1:30 p 84.6 81.5 81.5 83.6 78.9 62 67.2 0.0 2.0 NE 0.00 29.505
07/14/2004 2:00 p 85.8 81.5 81.5 83.7 80.4 66 69.1 0.0 1.0 ENE 0.00 29.481
07/14/2004 2:30 p 89.4 84.0 84.0 85.6 80.9 66 71.4 0.0 4.0 N 0.00 29.480
07/14/2004 3:00 p 84.0 80.5 80.5 81.6 79.1 65 67.7 1.0 4.0 N 0.00 29.455
07/14/2004 3:30 p 83.2 80.3 80.3 82.0 78.5 71 70.0 0.0 4.0 N 0.00 29.455
07/14/2004 4:00 p 78.8 76.3 76.3 78.5 75.0 78 68.9 0.0 3.0 N 0.00 29.463
07/14/2004 4:30 p 76.0 73.9 73.9 75.0 73.0 83 68.4 0.0 1.0 N 0.00 29.484
07/14/2004 5:00 p 74.0 70.0 70.0 73.0 69.0 100 70.0 0.0 2.0 N 0.12 29.452
07/14/2004 5:30 p 72.0 69.0 69.0 69.5 68.6 100 69.0 0.0 2.0 N 0.12 29.442
07/14/2004 6:00 p 72.0 68.8 68.8 69.1 68.7 100 68.8 0.0 2.0 N 0.09 29.444
07/14/2004 6:30 p 72.0 68.8 68.8 68.9 68.7 100 68.8 0.0 1.0 --- 0.06 29.439
07/14/2004 7:00 p 67.9 67.9 67.9 68.7 67.3 100 67.9 0.0 4.0 N 0.06 29.402
07/14/2004 7:30 p 67.2 67.2 67.2 67.4 66.7 100 67.2 0.0 2.0 N 0.04 29.399
07/14/2004 8:00 p 66.8 66.8 66.8 67.1 66.4 100 66.8 0.0 2.0 SSE 0.04 29.424
07/14/2004 8:30 p 66.2 66.2 66.2 66.6 66.0 100 66.2 0.0 1.0 --- 0.03 29.422
07/14/2004 9:00 p 66.9 66.9 66.9 67.2 66.6 100 66.9 0.0 3.0 SSE 0.02 29.412
07/14/2004 9:30 p 67.4 67.4 67.4 67.5 67.2 100 67.4 0.0 2.0 SSE 0.00 29.439
07/14/2004 10:00 p 67.2 67.2 67.2 67.4 67.1 100 67.2 0.0 0.0 --- 0.00 29.437
07/14/2004 10:30 p 67.3 67.3 67.3 67.5 67.2 100 67.3 0.0 0.0 --- 0.00 29.428
07/14/2004 11:00 p 67.1 67.1 67.1 67.2 67.1 100 67.1 0.0 1.0 --- 0.00 29.393
07/14/2004 11:30 p 67.2 67.2 67.2 67.3 67.0 100 67.2 0.0 1.0 SSE 0.00 29.415
07/15/2004 12:00 a 67.3 67.3 67.3 67.5 67.2 100 67.3 0.0 1.0 SSE 0.00 29.417
07/15/2004 12:30 a 67.4 67.4 67.4 67.5 67.3 100 67.4 0.0 0.0 --- 0.00 29.417
07/15/2004 1:00 a 67.3 67.3 67.3 67.4 67.2 100 67.3 0.0 0.0 --- 0.00 29.416
07/15/2004 1:30 a 67.4 67.4 67.4 67.5 67.2 100 67.4 0.0 0.0 --- 0.00 29.410
07/15/2004 2:00 a 67.0 67.0 67.0 67.3 66.8 100 67.0 0.0 0.0 --- 0.00 29.399
07/15/2004 2:30 a 66.7 66.7 66.7 67.0 66.3 100 66.7 0.0 0.0 --- 0.00 29.392
07/15/2004 3:00 a 66.4 66.4 66.4 66.5 66.3 100 66.4 0.0 0.0 --- 0.00 29.387
07/15/2004 3:30 a 66.0 66.0 66.0 66.4 65.7 100 66.0 0.0 0.0 --- 0.00 29.392
07/15/2004 4:00 a 65.4 65.4 65.4 65.8 65.1 100 65.4 0.0 0.0 --- 0.00 29.386
07/15/2004 4:30 a 65.2 65.2 65.2 65.4 65.0 100 65.2 0.0 0.0 --- 0.00 29.388
07/15/2004 5:00 a 64.8 64.8 64.8 65.0 64.6 100 64.8 0.0 0.0 --- 0.00 29.396
07/15/2004 5:30 a 65.2 65.2 65.2 65.3 64.9 100 65.2 0.0 0.0 --- 0.00 29.398
07/15/2004 6:00 a 65.0 65.0 65.0 65.1 64.9 100 65.0 0.0 0.0 --- 0.00 29.405
07/15/2004 6:30 a 65.1 65.1 65.1 65.3 65.0 100 65.1 0.0 0.0 --- 0.00 29.415
07/15/2004 7:00 a 65.2 65.2 65.2 65.3 65.1 100 65.2 0.0 0.0 --- 0.00 29.415
07/15/2004 7:30 a 66.4 66.4 66.4 69.7 65.1 100 66.4 0.0 1.0 --- 0.00 29.422
07/15/2004 8:00 a 67.1 67.1 67.1 68.5 66.7 100 67.1 0.0 0.0 --- 0.00 29.423
07/15/2004 8:30 a 67.4 67.4 67.4 68.4 66.8 100 67.4 0.0 0.0 --- 0.00 29.424
07/15/2004 9:00 a 67.7 67.7 67.7 68.5 67.0 100 67.7 0.0 0.0 --- 0.00 29.429
07/15/2004 9:30 a 72.0 69.1 69.1 69.8 68.4 100 69.1 0.0 1.0 SSE 0.00 29.435
07/15/2004 10:00 a 75.0 70.8 70.8 71.3 69.7 100 70.8 0.0 2.0 SSE 0.00 29.426
07/15/2004 10:30 a 77.0 72.7 72.7 74.2 71.3 100 72.7 0.0 2.0 SSW 0.00 29.432
07/15/2004 11:00 a 78.0 73.5 73.5 74.0 72.4 100 73.5 0.0 4.0 SSW 0.00 29.436
07/15/2004 11:30 a 78.0 74.2 74.2 74.8 73.5 100 74.2 0.0 3.0 S 0.00 29.441
07/15/2004 12:00 p 79.0 75.1 75.1 77.0 73.5 100 75.1 0.0 3.0 S 0.00 29.440
07/15/2004 12:30 p 82.5 77.6 77.6 83.5 75.5 85 72.7 0.0 5.0 S 0.00 29.439
07/15/2004 1:00 p 91.4 85.5 85.5 87.3 83.5 61 70.5 0.0 4.0 SSE 0.00 29.441
07/15/2004 1:30 p 88.9 86.4 86.4 89.0 84.7 53 67.3 0.0 4.0 SSW 0.00 29.439
07/15/2004 2:00 p 87.0 84.2 84.2 89.0 80.9 60 68.8 0.0 5.0 S 0.00 29.448
07/15/2004 2:30 p 79.5 77.8 77.8 80.9 76.6 65 65.1 0.0 3.0 S 0.01 29.449
07/15/2004 3:00 p 77.8 77.4 77.4 79.7 76.6 64 64.3 0.0 3.0 ESE 0.00 29.454
07/15/2004 3:30 p 81.0 79.3 79.3 80.7 78.4 65 66.5 0.0 4.0 SE 0.00 29.454
07/15/2004 4:00 p 81.0 78.6 78.6 79.0 78.2 64 65.4 0.0 3.0 SSE 0.00 29.457
07/15/2004 4:30 p 80.2 78.9 78.9 79.8 78.2 56 61.9 0.0 3.0 NNW 0.00 29.462
07/15/2004 5:00 p 79.1 77.8 77.8 79.0 77.2 61 63.3 0.0 4.0 SSW 0.00 29.464
07/15/2004 5:30 p 77.0 76.8 76.8 77.4 76.4 60 61.9 0.0 4.0 SSE 0.00 29.468
07/15/2004 6:00 p 76.0 76.4 76.4 76.6 75.9 60 61.5 0.0 2.0 ENE 0.00 29.472
07/15/2004 6:30 p 76.2 75.5 75.5 75.9 75.2 61 61.1 0.0 2.0 N 0.00 29.477
07/15/2004 7:00 p 75.2 75.4 75.4 75.8 75.0 61 61.0 0.0 2.0 NNW 0.00 29.482
07/15/2004 7:30 p 75.4 74.7 74.7 75.0 74.2 62 60.8 0.0 2.0 SSW 0.00 29.489
07/15/2004 8:00 p 74.8 73.6 73.6 74.2 72.9 64 60.7 0.0 2.0 SSW 0.00 29.488
07/15/2004 8:30 p 72.0 72.1 72.1 72.9 71.3 67 60.6 0.0 0.0 --- 0.00 29.492
07/15/2004 9:00 p 71.0 70.5 70.5 71.3 69.8 70 60.3 0.0 0.0 --- 0.00 29.499
07/15/2004 9:30 p 69.8 69.4 69.4 70.0 68.8 74 60.8 0.0 0.0 --- 0.00 29.505
07/15/2004 10:00 p 69.4 68.4 68.4 68.8 67.8 77 60.9 0.0 0.0 --- 0.00 29.518
07/15/2004 10:30 p 67.4 67.4 67.4 67.8 66.9 79 60.7 0.0 0.0 --- 0.00 29.512
07/15/2004 11:00 p 66.3 66.3 66.3 66.9 65.7 85 61.7 0.0 0.0 --- 0.00 29.510
07/15/2004 11:30 p 65.0 65.0 65.0 65.7 64.5 89 61.7 0.0 0.0 --- 0.00 29.525
07/16/2004 12:00 a 64.4 64.4 64.4 64.5 64.3 88 60.8 0.0 0.0 --- 0.00 29.526
07/16/2004 12:30 a 64.1 64.1 64.1 64.3 63.9 89 60.8 0.0 0.0 --- 0.00 29.529
07/16/2004 1:00 a 63.8 63.8 63.8 64.0 63.5 88 60.2 0.0 0.0 --- 0.00 29.534
07/16/2004 1:30 a 63.1 63.1 63.1 63.5 62.8 88 59.5 0.0 0.0 --- 0.00 29.531
07/16/2004 2:00 a 62.4 62.4 62.4 62.8 62.2 90 59.4 0.0 0.0 --- 0.00 29.530
07/16/2004 2:30 a 62.5 62.5 62.5 62.8 62.2 87 58.6 0.0 0.0 --- 0.00 29.527
07/16/2004 3:00 a 62.7 62.7 62.7 63.0 62.4 88 59.1 0.0 0.0 --- 0.00 29.526
07/16/2004 3:30 a 62.2 62.2 62.2 62.4 62.0 89 58.9 0.0 0.0 --- 0.00 29.527
07/16/2004 4:00 a 61.9 61.9 61.9 62.0 61.8 91 59.2 0.0 0.0 --- 0.00 29.531
07/16/2004 4:30 a 61.9 61.9 61.9 61.9 61.8 91 59.2 0.0 0.0 --- 0.00 29.532
07/16/2004 5:00 a 61.7 61.7 61.7 61.9 61.3 92 59.4 0.0 0.0 --- 0.00 29.534
07/16/2004 5:30 a 61.0 61.0 61.0 61.3 60.6 94 59.3 0.0 0.0 --- 0.00 29.531
07/16/2004 6:00 a 60.2 60.2 60.2 60.6 59.9 97 59.3 0.0 0.0 --- 0.00 29.540
07/16/2004 6:30 a 60.0 60.0 60.0 60.3 59.8 100 60.0 0.0 0.0 --- 0.00 29.543
07/16/2004 7:00 a 61.0 61.0 61.0 62.3 60.3 94 59.3 0.0 0.0 --- 0.00 29.544
07/16/2004 7:30 a 63.7 63.7 63.7 64.9 62.3 88 60.1 0.0 0.0 --- 0.00 29.547
07/16/2004 8:00 a 65.4 65.4 65.4 66.1 64.9 84 60.4 0.0 0.0 --- 0.00 29.556
07/16/2004 8:30 a 66.9 66.9 66.9 67.9 66.1 78 59.8 0.0 1.0 SE 0.00 29.566
07/16/2004 9:00 a 69.6 69.1 69.1 71.0 67.9 73 60.1 0.0 1.0 SE 0.00 29.556
07/16/2004 9:30 a 71.2 71.3 71.3 71.9 70.9 71 61.4 0.0 3.0 SSE 0.00 29.561
07/16/2004 10:00 a 72.0 72.4 72.4 73.3 71.9 69 61.7 0.0 3.0 SE 0.00 29.561
07/16/2004 10:30 a 76.4 74.7 74.7 76.2 73.0 67 63.0 0.0 2.0 NNW 0.00 29.559
07/16/2004 11:00 a 76.0 75.3 75.3 75.5 75.0 65 62.7 0.0 3.0 SSE 0.00 29.555
07/16/2004 11:30 a 76.4 75.9 75.9 76.2 75.4 62 62.0 0.0 3.0 SSW 0.00 29.556
07/16/2004 12:00 p 77.4 76.7 76.7 77.4 75.9 62 62.7 0.0 3.0 SE 0.00 29.566
07/16/2004 12:30 p 77.6 76.5 76.5 77.0 75.9 63 63.0 0.0 4.0 ESE 0.00 29.576
07/16/2004 1:00 p 83.0 80.6 80.6 85.2 76.2 60 65.4 0.0 3.0 ESE 0.00 29.580
07/16/2004 1:30 p 77.6 76.6 76.6 78.7 74.9 63 63.1 0.0 2.0 E 0.00 29.581
07/16/2004 2:00 p 77.6 76.5 76.5 78.1 75.6 63 63.0 0.0 2.0 WSW 0.00 29.582
07/16/2004 2:30 p 78.2 76.7 76.7 78.1 75.6 66 64.5 0.0 1.0 NNW 0.00 29.586
07/16/2004 3:00 p 76.8 74.6 74.6 75.6 73.8 69 63.8 0.0 2.0 NNW 0.00 29.577
07/16/2004 3:30 p 83.5 81.7 81.7 84.2 75.6 55 64.0 0.0 3.0 NNW 0.00 29.572
07/16/2004 4:00 p 83.8 81.6 81.6 83.0 81.1 58 65.4 0.0 3.0 S 0.00 29.574
07/16/2004 4:30 p 82.8 80.6 80.6 81.2 80.2 59 65.0 0.0 4.0 S 0.00 29.570
07/16/2004 5:00 p 82.0 80.3 80.3 80.7 79.9 60 65.2 0.0 3.0 S 0.00 29.575
07/16/2004 5:30 p 82.3 79.5 79.5 80.3 78.0 63 65.8 0.0 3.0 ESE 0.00 29.576
07/16/2004 6:00 p 79.4 77.6 77.6 78.0 77.4 64 64.5 0.0 4.0 SE 0.00 29.579
07/16/2004 6:30 p 78.2 77.0 77.0 77.4 76.4 66 64.8 0.0 3.0 SSE 0.00 29.584
07/16/2004 7:00 p 77.8 76.1 76.1 76.4 75.8 69 65.2 0.0 2.0 SE 0.00 29.588
07/16/2004 7:30 p 77.0 74.9 74.9 75.8 73.8 75 66.4 0.0 0.0 --- 0.00 29.597
07/16/2004 8:00 p 75.0 73.1 73.1 73.8 72.6 81 66.9 0.0 0.0 --- 0.00 29.605
07/16/2004 8:30 p 74.0 71.6 71.6 72.6 70.8 84 66.5 0.0 0.0 --- 0.00 29.615
07/16/2004 9:00 p 72.0 70.3 70.3 70.8 70.0 81 64.2 0.0 1.0 S 0.00 29.629
07/16/2004 9:30 p 72.2 69.8 69.8 70.8 68.5 91 67.1 0.0 1.0 SSE 0.00 29.640
07/16/2004 10:00 p 70.0 68.0 68.0 68.5 67.6 93 65.9 0.0 0.0 --- 0.00 29.643
07/16/2004 10:30 p 67.2 67.2 67.2 67.6 67.0 94 65.4 0.0 0.0 --- 0.00 29.648
07/16/2004 11:00 p 67.2 67.2 67.2 67.5 67.0 93 65.1 0.0 0.0 --- 0.00 29.650
07/16/2004 11:30 p 67.2 67.2 67.2 67.4 66.9 94 65.4 0.0 0.0 --- 0.00 29.658
07/17/2004 12:00 a 66.7 66.7 66.7 66.9 66.5 94 64.9 0.0 0.0 --- 0.00 29.666
07/17/2004 12:30 a 66.8 66.8 66.8 67.1 66.6 91 64.1 0.0 0.0 --- 0.00 29.661
07/17/2004 1:00 a 67.1 67.1 67.1 67.4 67.0 88 63.4 0.0 0.0 --- 0.00 29.653
07/17/2004 1:30 a 67.3 67.3 67.3 67.5 67.1 90 64.3 0.0 0.0 --- 0.00 29.656
07/17/2004 2:00 a 66.7 66.7 66.7 67.3 66.1 92 64.3 0.0 0.0 --- 0.00 29.659
07/17/2004 2:30 a 65.6 65.6 65.6 66.1 65.0 94 63.8 0.0 0.0 --- 0.00 29.655
07/17/2004 3:00 a 64.4 64.4 64.4 65.0 64.0 99 64.1 0.0 0.0 --- 0.00 29.654
07/17/2004 3:30 a 63.9 63.9 63.9 64.0 63.7 100 63.9 0.0 0.0 --- 0.00 29.657
07/17/2004 4:00 a 63.5 63.5 63.5 63.7 63.3 100 63.5 0.0 0.0 --- 0.00 29.664
07/17/2004 4:30 a 63.1 63.1 63.1 63.3 62.9 100 63.1 0.0 0.0 --- 0.00 29.669
07/17/2004 5:00 a 62.7 62.7 62.7 62.9 62.4 100 62.7 0.0 0.0 --- 0.00 29.677
07/17/2004 5:30 a 62.4 62.4 62.4 62.5 62.1 100 62.4 0.0 0.0 --- 0.00 29.690
07/17/2004 6:00 a 62.0 62.0 62.0 62.1 61.9 100 62.0 0.0 0.0 --- 0.00 29.695
07/17/2004 6:30 a 62.3 62.3 62.3 62.6 62.0 100 62.3 0.0 0.0 --- 0.00 29.699
07/17/2004 7:00 a 63.1 63.1 63.1 63.5 62.6 100 63.1 0.0 0.0 --- 0.00 29.707
07/17/2004 7:30 a 66.1 66.1 66.1 71.1 63.5 88 62.4 0.0 0.0 --- 0.00 29.701
07/17/2004 8:00 a 72.0 70.0 70.0 71.2 69.4 85 65.3 0.0 0.0 --- 0.00 29.714
07/17/2004 8:30 a 73.0 70.6 70.6 71.1 70.0 84 65.5 0.0 0.0 --- 0.00 29.720
07/17/2004 9:00 a 73.8 72.3 72.3 73.8 71.1 79 65.4 0.0 0.0 --- 0.00 29.721
07/17/2004 9:30 a 77.0 75.0 75.0 75.8 73.8 75 66.5 0.0 0.0 --- 0.00 29.724
07/17/2004 10:00 a 79.0 76.6 76.6 77.4 75.8 70 66.1 0.0 2.0 SE 0.00 29.725
07/17/2004 10:30 a 81.0 79.1 79.1 80.3 77.4 66 66.8 0.0 2.0 SSW 0.00 29.728
07/17/2004 11:00 a 82.1 79.8 79.8 80.2 79.4 61 65.2 0.0 1.0 S 0.00 29.736
07/17/2004 11:30 a 81.6 80.4 80.4 80.7 80.2 58 64.3 0.0 2.0 SE 0.00 29.735
07/17/2004 12:00 p 81.8 81.4 81.4 82.3 80.7 54 63.2 0.0 2.0 SE 0.00 29.728
07/17/2004 12:30 p 85.8 85.9 85.9 92.4 82.3 39 58.1 0.0 3.0 SSE 0.00 29.726
07/17/2004 1:00 p 94.2 92.8 92.8 96.9 89.2 34 60.3 0.0 3.0 SSE 0.00 29.720
07/17/2004 1:30 p 98.2 95.3 95.3 97.1 93.3 38 65.7 0.0 4.0 SE 0.00 29.713
07/17/2004 2:00 p 94.8 92.6 92.6 96.0 88.1 36 61.8 0.0 0.0 --- 0.00 29.702
07/17/2004 2:30 p 100.2 96.7 96.7 97.7 94.3 33 62.9 0.0 2.0 SSE 0.00 29.687
07/17/2004 3:00 p 96.0 94.4 94.4 95.1 92.3 35 62.6 0.0 2.0 WSW 0.00 29.685
07/17/2004 3:30 p 94.5 92.6 92.6 93.8 90.2 35 61.0 0.0 3.0 S 0.00 29.683
07/17/2004 4:00 p 87.9 87.1 87.1 90.2 85.7 43 61.9 0.0 2.0 SSE 0.00 29.681
07/17/2004 4:30 p 88.8 85.0 85.0 85.9 81.4 59 69.1 0.0 2.0 SSE 0.00 29.687
07/17/2004 5:00 p 84.4 82.6 82.6 83.2 81.1 47 60.3 0.0 3.0 S 0.00 29.692
07/17/2004 5:30 p 82.7 81.8 81.8 82.8 80.9 47 59.6 0.0 0.0 --- 0.00 29.693
07/17/2004 6:00 p 81.0 81.2 81.2 81.4 80.9 46 58.5 0.0 1.0 SE 0.00 29.696
07/17/2004 6:30 p 81.0 80.6 80.6 81.4 79.7 50 60.3 0.0 0.0 --- 0.00 29.701
07/17/2004 7:00 p 81.0 78.9 78.9 79.7 78.4 64 65.7 0.0 0.0 --- 0.00 29.702
07/17/2004 7:30 p 79.4 78.0 78.0 78.4 77.6 64 64.8 0.0 0.0 --- 0.00 29.704
07/17/2004 8:00 p 79.7 77.6 77.6 78.2 77.1 67 65.8 0.0 1.0 --- 0.00 29.707
07/17/2004 8:30 p 78.4 77.0 77.0 77.1 76.8 67 65.2 0.0 0.0 --- 0.00 29.722
07/17/2004 9:00 p 78.0 76.1 76.1 76.8 75.8 70 65.6 0.0 0.0 --- 0.00 29.734
07/17/2004 9:30 p 77.0 75.2 75.2 75.8 74.4 75 66.7 0.0 0.0 --- 0.00 29.748
07/17/2004 10:00 p 76.0 73.9 73.9 74.4 73.5 75 65.5 0.0 0.0 --- 0.00 29.756
07/17/2004 10:30 p 75.0 73.1 73.1 73.5 72.5 80 66.6 0.0 0.0 --- 0.00 29.762
07/17/2004 11:00 p 74.0 71.8 71.8 72.5 71.2 84 66.7 0.0 0.0 --- 0.00 29.762
07/17/2004 11:30 p 73.0 70.5 70.5 71.2 69.9 86 66.1 0.0 0.0 --- 0.00 29.753
07/18/2004 12:00 a 71.0 69.4 69.4 69.9 69.0 88 65.7 0.0 0.0 --- 0.00 29.758
07/18/2004 12:30 a 71.1 68.6 68.6 69.0 68.1 91 65.9 0.0 0.0 --- 0.00 29.758
07/18/2004 1:00 a 67.8 67.8 67.8 68.1 67.6 93 65.7 0.0 0.0 --- 0.00 29.760
07/18/2004 1:30 a 67.4 67.4 67.4 67.6 67.3 94 65.6 0.0 0.0 --- 0.00 29.758
07/18/2004 2:00 a 67.4 67.4 67.4 67.5 67.3 95 65.9 0.0 0.0 --- 0.00 29.760
07/18/2004 2:30 a 67.0 67.0 67.0 67.4 66.7 96 65.8 0.0 0.0 --- 0.00 29.757
07/18/2004 3:00 a 66.6 66.6 66.6 66.8 66.3 97 65.7 0.0 0.0 --- 0.00 29.753
07/18/2004 3:30 a 66.5 66.5 66.5 67.2 66.2 96 65.3 0.0 0.0 --- 0.00 29.753
07/18/2004 4:00 a 67.2 67.2 67.2 67.4 67.1 96 66.0 0.0 0.0 --- 0.00 29.746
07/18/2004 4:30 a 67.2 67.2 67.2 67.5 67.1 97 66.3 0.0 0.0 --- 0.00 29.746
07/18/2004 5:00 a 67.7 67.7 67.7 68.0 67.5 95 66.2 0.0 0.0 --- 0.00 29.744
07/18/2004 5:30 a 71.4 68.6 68.6 69.2 68.0 94 66.8 0.0 0.0 --- 0.00 29.749
07/18/2004 6:00 a 72.6 69.5 69.5 69.9 69.2 93 67.4 0.0 0.0 --- 0.00 29.749
07/18/2004 6:30 a 72.4 70.2 70.2 70.5 69.9 92 67.8 0.0 0.0 --- 0.00 29.750
07/18/2004 7:00 a 73.6 70.7 70.7 70.9 70.5 93 68.6 0.0 0.0 --- 0.00 29.744
07/18/2004 7:30 a 74.6 71.2 71.2 71.3 70.9 98 70.6 0.0 0.0 --- 0.00 29.750
07/18/2004 8:00 a 75.0 71.1 71.1 71.3 71.0 100 71.1 0.0 0.0 --- 0.00 29.752
07/18/2004 8:30 a 75.0 71.4 71.4 71.6 71.2 100 71.4 0.0 0.0 --- 0.02 29.764
07/18/2004 9:00 a 76.0 71.9 71.9 72.2 71.6 100 71.9 0.0 0.0 --- 0.02 29.765
07/18/2004 9:30 a 76.0 72.4 72.4 72.6 72.2 100 72.4 0.0 0.0 --- 0.02 29.764
07/18/2004 10:00 a 76.0 72.1 72.1 72.5 72.0 100 72.1 0.0 0.0 --- 0.01 29.769
07/18/2004 10:30 a 76.0 72.4 72.4 72.6 72.0 100 72.4 0.0 0.0 --- 0.00 29.778
07/18/2004 11:00 a 77.0 72.5 72.5 72.7 72.3 100 72.5 0.0 0.0 --- 0.00 29.782
07/18/2004 11:30 a 77.0 72.6 72.6 72.8 72.3 100 72.6 0.0 2.0 SSE 0.00 29.768
07/18/2004 12:00 p 77.0 72.5 72.5 72.8 72.3 100 72.5 0.0 1.0 SSE 0.00 29.762
07/18/2004 12:30 p 77.0 73.3 73.3 73.6 72.7 100 73.3 0.0 2.0 SSE 0.00 29.756
07/18/2004 1:00 p 77.0 73.2 73.2 73.5 72.9 100 73.2 0.0 1.0 --- 0.00 29.748
07/18/2004 1:30 p 77.0 72.8 72.8 73.1 72.4 100 72.8 0.0 1.0 SSE 0.00 29.742
07/18/2004 2:00 p 76.0 72.2 72.2 72.4 71.9 100 72.2 0.0 1.0 ESE 0.00 29.736
07/18/2004 2:30 p 77.0 72.5 72.5 73.0 72.3 100 72.5 0.0 4.0 SSE 0.00 29.724
07/18/2004 3:00 p 77.0 73.0 73.0 73.1 72.8 100 73.0 0.0 1.0 SSE 0.00 29.723
07/18/2004 3:30 p 77.0 72.7 72.7 73.6 70.3 100 72.7 1.0 5.0 SSE 0.03 29.699
07/18/2004 4:00 p 74.0 69.9 69.9 70.3 69.6 100 69.9 0.0 2.0 SSE 0.11 29.716
07/18/2004 4:30 p 67.6 67.6 67.6 70.3 66.9 100 67.6 0.0 2.0 NNE 0.08 29.703
07/18/2004 5:00 p 67.4 67.4 67.4 67.8 67.0 100 67.4 0.0 0.0 --- 0.06 29.706
07/18/2004 5:30 p 67.4 67.4 67.4 67.7 67.3 100 67.4 0.0 2.0 ENE 0.06 29.694
07/18/2004 6:00 p 67.8 67.8 67.8 68.1 67.5 100 67.8 0.0 0.0 --- 0.04 29.677
07/18/2004 6:30 p 70.0 68.4 68.4 68.7 68.1 100 68.4 0.0 1.0 ENE 0.04 29.677
07/18/2004 7:00 p 72.0 68.5 68.5 68.5 68.3 100 68.5 0.0 0.0 --- 0.03 29.678
07/18/2004 7:30 p 70.0 68.1 68.1 68.3 67.1 100 68.1 0.0 2.0 NNE 0.03 29.680
07/18/2004 8:00 p 66.4 66.4 66.4 67.0 66.0 100 66.4 0.0 3.0 E 0.02 29.670
07/18/2004 8:30 p 65.9 65.9 65.9 66.0 65.6 100 65.9 0.0 1.0 --- 0.02 29.668
07/18/2004 9:00 p 65.4 65.4 65.4 65.6 65.3 100 65.4 0.0 2.0 SSE 0.02 29.667
07/18/2004 9:30 p 65.2 65.2 65.2 65.4 65.0 100 65.2 0.0 1.0 --- 0.01 29.668
07/18/2004 10:00 p 64.9 64.9 64.9 65.0 64.9 100 64.9 0.0 2.0 SSE 0.01 29.670
07/18/2004 10:30 p 65.0 65.0 65.0 65.0 64.9 100 65.0 0.0 0.0 --- 0.00 29.660
07/18/2004 11:00 p 65.0 65.0 65.0 65.2 65.0 100 65.0 0.0 1.0 SSE 0.01 29.662
07/18/2004 11:30 p 65.3 65.3 65.3 65.5 65.2 100 65.3 0.0 1.0 SSE 0.01 29.663
07/19/2004 12:30 a 65.5 65.5 65.5 65.6 65.3 100 65.5 0.0 1.0 SSE 0.05 29.645
07/19/2004 1:00 a 65.3 65.3 65.3 65.3 65.2 100 65.3 0.0 0.0 --- 0.00 29.641
07/19/2004 1:30 a 65.2 65.2 65.2 65.3 65.2 100 65.2 0.0 0.0 --- 0.02 29.638
07/19/2004 2:00 a 65.2 65.2 65.2 65.3 65.2 100 65.2 0.0 0.0 --- 0.06 29.629
07/19/2004 2:30 a 65.2 65.2 65.2 65.3 65.2 100 65.2 0.0 0.0 --- 0.01 29.624
07/19/2004 3:00 a 65.4 65.4 65.4 65.4 65.2 100 65.4 0.0 0.0 --- 0.00 29.617
07/19/2004 3:30 a 65.4 65.4 65.4 65.4 65.4 100 65.4 0.0 0.0 --- 0.00 29.616
07/19/2004 4:00 a 65.3 65.3 65.3 65.4 65.3 100 65.3 0.0 0.0 --- 0.00 29.615
07/19/2004 4:30 a 65.5 65.5 65.5 65.5 65.3 100 65.5 0.0 0.0 --- 0.01 29.611
07/19/2004 5:00 a 65.5 65.5 65.5 65.6 65.5 100 65.5 0.0 0.0 --- 0.01 29.611
07/19/2004 5:30 a 65.7 65.7 65.7 65.8 65.6 100 65.7 0.0 0.0 --- 0.00 29.616
07/19/2004 6:00 a 65.9 65.9 65.9 66.0 65.8 100 65.9 0.0 0.0 --- 0.01 29.622
07/19/2004 6:30 a 66.2 66.2 66.2 66.4 66.0 100 66.2 0.0 0.0 --- 0.00 29.622
07/19/2004 7:00 a 66.5 66.5 66.5 66.7 66.4 100 66.5 0.0 0.0 --- 0.00 29.617
07/19/2004 7:30 a 66.8 66.8 66.8 66.9 66.7 100 66.8 0.0 0.0 --- 0.00 29.626
07/19/2004 8:00 a 67.1 67.1 67.1 67.3 66.9 100 67.1 0.0 0.0 --- 0.01 29.629
07/19/2004 8:30 a 67.9 67.9 67.9 68.4 67.3 100 67.9 0.0 0.0 --- 0.00 29.634
07/19/2004 9:00 a 70.0 68.1 68.1 68.3 68.0 100 68.1 0.0 0.0 --- 0.00 29.639
07/19/2004 9:30 a 70.0 68.3 68.3 68.4 68.3 100 68.3 0.0 1.0 --- 0.00 29.640
07/19/2004 10:00 a 72.0 68.6 68.6 69.1 68.4 100 68.6 0.0 0.0 --- 0.00 29.646
07/19/2004 10:30 a 74.0 69.9 69.9 71.1 69.1 100 69.9 0.0 2.0 SSE 0.00 29.641
07/19/2004 11:00 a 75.0 70.5 70.5 71.0 70.3 100 70.5 0.0 1.0 SSE 0.00 29.648
07/19/2004 11:30 a 75.0 70.6 70.6 70.9 70.3 100 70.6 0.0 0.0 --- 0.00 29.647
07/19/2004 12:00 p 75.0 70.9 70.9 71.5 70.6 100 70.9 0.0 0.0 --- 0.00 29.642
07/19/2004 12:30 p 76.0 71.5 71.5 71.7 71.3 100 71.5 0.0 1.0 SSE 0.00 29.642
07/19/2004 1:00 p 76.0 72.1 72.1 72.4 71.7 100 72.1 0.0 1.0 SSE 0.00 29.644
07/19/2004 1:30 p 77.0 72.5 72.5 73.0 72.3 100 72.5 0.0 1.0 SSE 0.00 29.643
07/19/2004 2:00 p 78.0 73.7 73.7 74.2 73.0 100 73.7 0.0 2.0 SSE 0.00 29.643
07/19/2004 2:30 p 79.0 74.5 74.5 75.3 74.1 100 74.5 0.0 3.0 SSE 0.00 29.641
07/19/2004 3:00 p 79.0 74.5 74.5 75.0 74.1 100 74.5 0.0 2.0 SSE 0.00 29.635
07/19/2004 3:30 p 80.0 76.3 76.3 77.4 75.1 96 75.1 0.0 2.0 S 0.00 29.633
07/19/2004 4:00 p 81.5 76.8 76.8 78.1 75.5 95 75.3 0.0 4.0 SE 0.00 29.630
07/19/2004 4:30 p 83.3 78.4 78.4 78.8 77.6 93 76.2 0.0 3.0 SSE 0.00 29.627
07/19/2004 5:00 p 83.0 79.3 79.3 79.6 78.8 80 72.6 0.0 2.0 SSE 0.00 29.620
07/19/2004 5:30 p 83.8 79.9 79.9 80.2 79.4 74 70.9 0.0 3.0 SE 0.00 29.622
07/19/2004 6:00 p 82.2 78.6 78.6 79.4 78.1 76 70.4 0.0 3.0 SE 0.00 29.621
07/19/2004 6:30 p 81.0 77.9 77.9 78.3 77.6 75 69.3 0.0 0.0 --- 0.00 29.625
07/19/2004 7:00 p 80.6 76.8 76.8 77.6 75.9 78 69.4 0.0 0.0 --- 0.00 29.627
07/19/2004 7:30 p 77.0 75.4 75.4 75.9 74.8 80 68.8 0.0 0.0 --- 0.00 29.635
07/19/2004 8:00 p 76.0 74.1 74.1 74.8 73.2 85 69.3 0.0 0.0 --- 0.00 29.639
07/19/2004 8:30 p 74.2 72.2 72.2 73.2 71.2 91 69.4 0.0 0.0 --- 0.00 29.646
07/19/2004 9:00 p 73.8 70.5 70.5 71.2 70.0 94 68.7 0.0 0.0 --- 0.00 29.654
07/19/2004 9:30 p 73.0 69.6 69.6 70.0 69.3 95 68.1 0.0 0.0 --- 0.00 29.665
07/19/2004 10:00 p 72.0 68.8 68.8 69.3 68.3 100 68.8 0.0 0.0 --- 0.00 29.671
07/19/2004 10:30 p 67.9 67.9 67.9 68.3 67.6 100 67.9 0.0 0.0 --- 0.00 29.676
07/19/2004 11:00 p 67.3 67.3 67.3 67.6 67.1 100 67.3 0.0 0.0 --- 0.00 29.683
07/19/2004 11:30 p 67.0 67.0 67.0 67.1 66.9 100 67.0 0.0 0.0 --- 0.00 29.683
07/20/2004 12:00 a 66.7 66.7 66.7 66.9 66.5 100 66.7 0.0 0.0 --- 0.00 29.688
07/20/2004 12:30 a 66.3 66.3 66.3 66.5 66.1 100 66.3 0.0 0.0 --- 0.00 29.689
07/20/2004 1:00 a 66.0 66.0 66.0 66.1 65.9 100 66.0 0.0 0.0 --- 0.00 29.690
07/20/2004 1:30 a 65.8 65.8 65.8 65.9 65.6 100 65.8 0.0 0.0 --- 0.00 29.690
07/20/2004 2:00 a 65.5 65.5 65.5 65.6 65.3 100 65.5 0.0 0.0 --- 0.00 29.689
07/20/2004 2:30 a 65.2 65.2 65.2 65.3 65.1 100 65.2 0.0 0.0 --- 0.00 29.689
07/20/2004 3:00 a 65.2 65.2 65.2 65.2 65.1 100 65.2 0.0 0.0 --- 0.00 29.694
07/20/2004 3:30 a 65.2 65.2 65.2 65.3 65.1 100 65.2 0.0 0.0 --- 0.00 29.691
07/20/2004 4:00 a 65.2 65.2 65.2 65.3 65.1 100 65.2 0.0 0.0 --- 0.00 29.684
07/20/2004 4:30 a 64.9 64.9 64.9 65.1 64.6 100 64.9 0.0 0.0 --- 0.00 29.691
07/20/2004 5:00 a 64.4 64.4 64.4 64.7 64.2 100 64.4 0.0 0.0 --- 0.00 29.696
07/20/2004 5:30 a 64.0 64.0 64.0 64.2 63.9 100 64.0 0.0 0.0 --- 0.00 29.712
07/20/2004 6:00 a 63.7 63.7 63.7 64.0 63.4 100 63.7 0.0 0.0 --- 0.00 29.717
07/20/2004 6:30 a 63.5 63.5 63.5 63.6 63.4 100 63.5 0.0 0.0 --- 0.00 29.726
07/20/2004 7:00 a 63.8 63.8 63.8 64.3 63.5 100 63.8 0.0 0.0 --- 0.00 29.736
07/20/2004 7:30 a 66.8 66.8 66.8 71.9 64.3 97 65.9 0.0 0.0 --- 0.00 29.736
07/20/2004 8:00 a 73.2 70.4 70.4 72.8 69.4 96 69.2 0.0 0.0 --- 0.00 29.741
07/20/2004 8:30 a 72.0 70.1 70.1 70.7 69.8 90 67.0 0.0 1.0 SSE 0.00 29.746
07/20/2004 9:00 a 73.6 72.0 72.0 73.7 70.8 78 64.8 0.0 3.0 SSE 0.00 29.759
07/20/2004 9:30 a 77.0 75.2 75.2 75.7 73.7 75 66.7 0.0 2.0 SSE 0.00 29.762
07/20/2004 10:00 a 78.3 76.3 76.3 76.9 75.5 73 67.0 0.0 2.0 SSE 0.00 29.762
07/20/2004 10:30 a 79.7 78.1 78.1 79.3 76.9 67 66.3 0.0 2.0 SSE 0.00 29.765
07/20/2004 11:00 a 81.0 79.1 79.1 79.7 78.5 66 66.8 0.0 1.0 SSE 0.00 29.765
07/20/2004 11:30 a 82.5 79.5 79.5 79.7 79.5 65 66.7 0.0 2.0 SE 0.00 29.768
07/20/2004 12:00 p 83.4 80.5 80.5 81.6 79.7 62 66.3 0.0 2.0 SE 0.00 29.763
07/20/2004 12:30 p 84.6 83.6 83.6 89.7 81.6 43 58.8 0.0 3.0 SE 0.00 29.768
07/20/2004 1:00 p 92.6 89.6 89.6 92.2 85.6 42 63.5 0.0 4.0 SSE 0.00 29.766
07/20/2004 1:30 p 99.0 94.9 94.9 96.2 92.2 40 66.8 0.0 2.0 SSE 0.00 29.756
07/20/2004 2:00 p 97.8 94.5 94.5 95.4 93.6 37 64.2 0.0 3.0 SSE 0.00 29.749
07/20/2004 2:30 p 97.6 93.9 93.9 95.9 91.7 39 65.2 0.0 3.0 SSE 0.00 29.741
07/20/2004 3:00 p 100.4 93.7 93.7 95.3 87.9 46 69.8 0.0 3.0 E 0.00 29.748
07/20/2004 3:30 p 92.0 88.8 88.8 90.6 87.0 45 64.7 0.0 3.0 SSE 0.